Observation data for Caprock Canyons on 08/20/2019      Previous  Date  Next       Current Mesonet Observations  Soil Data  Daily Summary Page  Observations in Plain Language
KQU1 200500Z 19008KT 29/15 A3004 RMK A01 T02880147  RH  042%=      5-min Rain = 0
KQU1 200501Z 19008KT 29/15 A3004 RMK A01 T02880147  RH  042%=      5-min Rain = 0
KQU1 200502Z 19008KT 29/15 A3004 RMK A01 T02880147  RH  042%=      5-min Rain = 0
KQU1 200503Z 19008KT 29/15 A3004 RMK A01 T02870147  RH  042%=      5-min Rain = 0
KQU1 200504Z 19008KT 29/15 A3004 RMK A01 T02870148  RH  043%=      5-min Rain = 0
KQU1 200505Z 19009KT 29/15 A3004 RMK A01 T02870148  RH  043%=      5-min Rain = 0
KQU1 200506Z 19008KT 29/15 A3004 RMK A01 T02860148  RH  043%=      5-min Rain = 0
KQU1 200507Z 19009KT 29/15 A3004 RMK A01 T02860148  RH  043%=      5-min Rain = 0
KQU1 200508Z 19009KT 29/15 A3004 RMK A01 T02870148  RH  043%=      5-min Rain = 0
KQU1 200509Z 19009KT 29/15 A3004 RMK A01 T02880148  RH  042%=      5-min Rain = 0
KQU1 200510Z 19009KT 29/15 A3004 RMK A01 T02880147  RH  042%=      5-min Rain = 0
KQU1 200511Z 19008KT 29/15 A3004 RMK A01 T02890147  RH  042%=      5-min Rain = 0
KQU1 200512Z 19009KT 29/15 A3004 RMK A01 T02890147  RH  042%=      5-min Rain = 0
KQU1 200513Z 19008KT 29/15 A3004 RMK A01 T02890147  RH  042%=      5-min Rain = 0
KQU1 200514Z 19008KT 29/15 A3004 RMK A01 T02890147  RH  042%=      5-min Rain = 0
KQU1 200515Z 19008KT 29/15 A3004 RMK A01 T02890147  RH  042%=      5-min Rain = 0
KQU1 200516Z 19009KT 29/15 A3004 RMK A01 T02890147  RH  042%=      5-min Rain = 0
KQU1 200517Z 19009KT 29/15 A3004 RMK A01 T02880148  RH  042%=      5-min Rain = 0
KQU1 200518Z 19009KT 29/15 A3004 RMK A01 T02880148  RH  042%=      5-min Rain = 0
KQU1 200519Z 19008KT 29/15 A3004 RMK A01 T02880148  RH  042%=      5-min Rain = 0
KQU1 200520Z 19009KT 29/15 A3004 RMK A01 T02880148  RH  042%=      5-min Rain = 0
KQU1 200521Z 18010KT 29/15 A3004 RMK A01 T02880148  RH  042%=      5-min Rain = 0
KQU1 200522Z 18010KT 29/15 A3004 RMK A01 T02890148  RH  042%=      5-min Rain = 0
KQU1 200523Z 18010KT 29/15 A3004 RMK A01 T02900147  RH  042%=      5-min Rain = 0
KQU1 200524Z 18010KT 29/15 A3004 RMK A01 T02910147  RH  041%=      5-min Rain = 0
KQU1 200525Z 18010KT 29/15 A3004 RMK A01 T02920147  RH  041%=      5-min Rain = 0
KQU1 200526Z 18010KT 29/15 A3004 RMK A01 T02930147  RH  041%=      5-min Rain = 0
KQU1 200527Z 18008KT 29/15 A3004 RMK A01 T02930147  RH  041%=      5-min Rain = 0
KQU1 200528Z 18009KT 29/15 A3004 RMK A01 T02930146  RH  041%=      5-min Rain = 0
KQU1 200529Z 18010KT 29/15 A3004 RMK A01 T02930147  RH  041%=      5-min Rain = 0
KQU1 200530Z 18009KT 29/15 A3004 RMK A01 T02930147  RH  041%=      5-min Rain = 0
KQU1 200531Z 19009KT 29/15 A3004 RMK A01 T02930147  RH  041%=      5-min Rain = 0
KQU1 200532Z 18008KT 29/15 A3004 RMK A01 T02920147  RH  041%=      5-min Rain = 0
KQU1 200533Z 18009KT 29/15 A3004 RMK A01 T02920147  RH  041%=      5-min Rain = 0
KQU1 200534Z 18009KT 29/15 A3004 RMK A01 T02920147  RH  041%=      5-min Rain = 0
KQU1 200535Z 18009KT 29/15 A3004 RMK A01 T02920147  RH  041%=      5-min Rain = 0
KQU1 200536Z 18008KT 29/15 A3004 RMK A01 T02920147  RH  041%=      5-min Rain = 0
KQU1 200537Z 19008KT 29/15 A3004 RMK A01 T02910147  RH  041%=      5-min Rain = 0
KQU1 200538Z 19008KT 29/15 A3004 RMK A01 T02900147  RH  042%=      5-min Rain = 0
KQU1 200539Z 18009KT 29/15 A3004 RMK A01 T02900147  RH  042%=      5-min Rain = 0
KQU1 200540Z 18009KT 29/15 A3004 RMK A01 T02890147  RH  042%=      5-min Rain = 0
KQU1 200541Z 18008KT 29/15 A3004 RMK A01 T02890148  RH  042%=      5-min Rain = 0
KQU1 200542Z 18008KT 29/15 A3004 RMK A01 T02890148  RH  042%=      5-min Rain = 0
KQU1 200543Z 18009KT 29/15 A3004 RMK A01 T02880148  RH  042%=      5-min Rain = 0
KQU1 200544Z 18010KT 29/15 A3004 RMK A01 T02880148  RH  042%=      5-min Rain = 0
KQU1 200545Z 18008KT 29/15 A3004 RMK A01 T02890148  RH  042%=      5-min Rain = 0
KQU1 200546Z 18009KT 29/15 A3004 RMK A01 T02880148  RH  042%=      5-min Rain = 0
KQU1 200547Z 18008KT 29/15 A3004 RMK A01 T02880148  RH  042%=      5-min Rain = 0
KQU1 200548Z 18008KT 29/15 A3004 RMK A01 T02870148  RH  043%=      5-min Rain = 0
KQU1 200549Z 18009KT 29/15 A3004 RMK A01 T02870149  RH  043%=      5-min Rain = 0
KQU1 200550Z 18009KT 29/15 A3004 RMK A01 T02870149  RH  043%=      5-min Rain = 0
KQU1 200551Z 18009KT 29/15 A3004 RMK A01 T02880149  RH  043%=      5-min Rain = 0
KQU1 200552Z 19010KT 29/15 A3004 RMK A01 T02880149  RH  043%=      5-min Rain = 0
KQU1 200553Z 19009KT 29/15 A3004 RMK A01 T02880149  RH  043%=      5-min Rain = 0
KQU1 200554Z 18009KT 29/15 A3004 RMK A01 T02880149  RH  043%=      5-min Rain = 0
KQU1 200555Z 18009KT 29/15 A3004 RMK A01 T02880149  RH  043%=      5-min Rain = 0
KQU1 200556Z 18009KT 29/15 A3004 RMK A01 T02880150  RH  043%=      5-min Rain = 0
KQU1 200557Z 18008KT 29/15 A3004 RMK A01 T02870150  RH  043%=      5-min Rain = 0
KQU1 200558Z 18009KT 29/15 A3004 RMK A01 T02870150  RH  043%=      5-min Rain = 0
KQU1 200559Z 18009KT 29/15 A3004 RMK A01 T02860150  RH  043%=      5-min Rain = 0
KQU1 200600Z 18009KT 29/15 A3004 RMK A01 T02860150  RH  044%=      5-min Rain = 0
KQU1 200601Z 18010KT 29/15 A3004 RMK A01 T02860151  RH  044%=      5-min Rain = 0
KQU1 200602Z 19010KT 29/15 A3004 RMK A01 T02860151  RH  044%=      5-min Rain = 0
KQU1 200603Z 19010KT 29/15 A3004 RMK A01 T02860151  RH  044%=      5-min Rain = 0
KQU1 200604Z 19010KT 29/15 A3004 RMK A01 T02870151  RH  044%=      5-min Rain = 0
KQU1 200605Z 19010KT 29/15 A3004 RMK A01 T02880151  RH  043%=      5-min Rain = 0
KQU1 200606Z 19011KT 29/15 A3004 RMK A01 T02890151  RH  043%=      5-min Rain = 0
KQU1 200607Z 19011KT 29/15 A3004 RMK A01 T02890151  RH  043%=      5-min Rain = 0
KQU1 200608Z 19012KT 29/15 A3004 RMK A01 T02900151  RH  043%=      5-min Rain = 0
KQU1 200609Z 19011KT 29/15 A3004 RMK A01 T02910151  RH  043%=      5-min Rain = 0
KQU1 200610Z 19012KT 29/15 A3004 RMK A01 T02910151  RH  043%=      5-min Rain = 0
KQU1 200611Z 19012KT 29/15 A3004 RMK A01 T02910151  RH  043%=      5-min Rain = 0
KQU1 200612Z 19011KT 29/15 A3004 RMK A01 T02910151  RH  043%=      5-min Rain = 0
KQU1 200613Z 19011KT 29/15 A3004 RMK A01 T02910151  RH  043%=      5-min Rain = 0
KQU1 200614Z 19011KT 29/15 A3004 RMK A01 T02910152  RH  043%=      5-min Rain = 0
KQU1 200615Z 19011KT 29/15 A3004 RMK A01 T02900152  RH  043%=      5-min Rain = 0
KQU1 200616Z 18011KT 29/15 A3004 RMK A01 T02900152  RH  043%=      5-min Rain = 0
KQU1 200617Z 18011KT 29/15 A3004 RMK A01 T02900152  RH  043%=      5-min Rain = 0
KQU1 200618Z 18011KT 29/15 A3004 RMK A01 T02900152  RH  043%=      5-min Rain = 0
KQU1 200619Z 18010KT 29/15 A3004 RMK A01 T02890152  RH  043%=      5-min Rain = 0
KQU1 200620Z 18011KT 29/15 A3004 RMK A01 T02890152  RH  043%=      5-min Rain = 0
KQU1 200621Z 18010KT 29/15 A3004 RMK A01 T02890152  RH  043%=      5-min Rain = 0
KQU1 200622Z 18011KT 29/15 A3004 RMK A01 T02890152  RH  043%=      5-min Rain = 0
KQU1 200623Z 18010KT 29/15 A3004 RMK A01 T02880152  RH  044%=      5-min Rain = 0
KQU1 200624Z 18009KT 29/15 A3004 RMK A01 T02870152  RH  044%=      5-min Rain = 0
KQU1 200625Z 18010KT 29/15 A3004 RMK A01 T02870152  RH  044%=      5-min Rain = 0
KQU1 200626Z 18010KT 29/15 A3004 RMK A01 T02860153  RH  044%=      5-min Rain = 0
KQU1 200627Z 18010KT 29/15 A3004 RMK A01 T02860153  RH  044%=      5-min Rain = 0
KQU1 200628Z 18010KT 29/15 A3004 RMK A01 T02860153  RH  044%=      5-min Rain = 0
KQU1 200629Z 18010KT 29/15 A3004 RMK A01 T02850153  RH  045%=      5-min Rain = 0
KQU1 200630Z 18010KT 29/15 A3004 RMK A01 T02850153  RH  045%=      5-min Rain = 0
KQU1 200631Z 18010KT 29/15 A3004 RMK A01 T02860153  RH  044%=      5-min Rain = 0
KQU1 200632Z 18010KT 29/15 A3004 RMK A01 T02860153  RH  044%=      5-min Rain = 0
KQU1 200633Z 18010KT 29/15 A3004 RMK A01 T02860153  RH  044%=      5-min Rain = 0
KQU1 200634Z 18010KT 29/15 A3004 RMK A01 T02860153  RH  044%=      5-min Rain = 0
KQU1 200635Z 18010KT 29/15 A3004 RMK A01 T02860153  RH  044%=      5-min Rain = 0
KQU1 200636Z 18010KT 29/15 A3004 RMK A01 T02860153  RH  044%=      5-min Rain = 0
KQU1 200637Z 18010KT 29/15 A3004 RMK A01 T02860153  RH  044%=      5-min Rain = 0
KQU1 200638Z 18010KT 29/15 A3004 RMK A01 T02860153  RH  044%=      5-min Rain = 0
KQU1 200639Z 18010KT 29/15 A3004 RMK A01 T02860153  RH  044%=      5-min Rain = 0
KQU1 200640Z 18010KT 29/15 A3004 RMK A01 T02860153  RH  044%=      5-min Rain = 0
KQU1 200641Z 18010KT 29/15 A3004 RMK A01 T02860153  RH  044%=      5-min Rain = 0
KQU1 200642Z 18009KT 29/15 A3004 RMK A01 T02850153  RH  045%=      5-min Rain = 0
KQU1 200643Z 18010KT 29/15 A3004 RMK A01 T02850154  RH  045%=      5-min Rain = 0
KQU1 200644Z 18009KT 29/15 A3004 RMK A01 T02850154  RH  045%=      5-min Rain = 0
KQU1 200645Z 18009KT 29/15 A3004 RMK A01 T02850154  RH  045%=      5-min Rain = 0
KQU1 200646Z 18010KT 28/15 A3004 RMK A01 T02840154  RH  045%=      5-min Rain = 0
KQU1 200647Z 18010KT 28/15 A3004 RMK A01 T02840154  RH  045%=      5-min Rain = 0
KQU1 200648Z 18009KT 28/15 A3004 RMK A01 T02840154  RH  045%=      5-min Rain = 0
KQU1 200649Z 18009KT 28/15 A3004 RMK A01 T02830154  RH  045%=      5-min Rain = 0
KQU1 200650Z 18009KT 28/15 A3004 RMK A01 T02830154  RH  046%=      5-min Rain = 0
KQU1 200651Z 18010KT 28/15 A3004 RMK A01 T02820154  RH  046%=      5-min Rain = 0
KQU1 200652Z 18010KT 28/15 A3004 RMK A01 T02820154  RH  046%=      5-min Rain = 0
KQU1 200653Z 18010KT 28/15 A3004 RMK A01 T02820154  RH  046%=      5-min Rain = 0
KQU1 200654Z 18010KT 28/15 A3004 RMK A01 T02820154  RH  046%=      5-min Rain = 0
KQU1 200655Z 18010KT 28/15 A3004 RMK A01 T02820154  RH  046%=      5-min Rain = 0
KQU1 200656Z 18010KT 28/15 A3004 RMK A01 T02820154  RH  046%=      5-min Rain = 0
KQU1 200657Z 18010KT 28/15 A3004 RMK A01 T02820154  RH  046%=      5-min Rain = 0
KQU1 200658Z 18010KT 28/15 A3004 RMK A01 T02820154  RH  046%=      5-min Rain = 0
KQU1 200659Z 18010KT 28/15 A3004 RMK A01 T02820154  RH  046%=      5-min Rain = 0
KQU1 200700Z 18010KT 28/16 A3004 RMK A01 T02820155  RH  046%=      5-min Rain = 0
KQU1 200701Z 18010KT 28/16 A3004 RMK A01 T02820155  RH  046%=      5-min Rain = 0
KQU1 200702Z 18010KT 28/15 A3004 RMK A01 T02820154  RH  046%=      5-min Rain = 0
KQU1 200703Z 18010KT 28/16 A3004 RMK A01 T02820155  RH  046%=      5-min Rain = 0
KQU1 200704Z 18009KT 28/16 A3004 RMK A01 T02810155  RH  046%=      5-min Rain = 0
KQU1 200705Z 18010KT 28/16 A3004 RMK A01 T02810155  RH  046%=      5-min Rain = 0
KQU1 200706Z 18009KT 28/16 A3004 RMK A01 T02810155  RH  046%=      5-min Rain = 0
KQU1 200707Z 18009KT 28/16 A3004 RMK A01 T02810155  RH  046%=      5-min Rain = 0
KQU1 200708Z 18009KT 28/16 A3004 RMK A01 T02810155  RH  046%=      5-min Rain = 0
KQU1 200709Z 18009KT 28/16 A3004 RMK A01 T02810155  RH  046%=      5-min Rain = 0
KQU1 200710Z 18008KT 28/16 A3004 RMK A01 T02800155  RH  046%=      5-min Rain = 0
KQU1 200711Z 18008KT 28/16 A3004 RMK A01 T02800155  RH  046%=      5-min Rain = 0
KQU1 200712Z 18010KT 28/16 A3004 RMK A01 T02800155  RH  046%=      5-min Rain = 0
KQU1 200713Z 18009KT 28/16 A3004 RMK A01 T02800155  RH  046%=      5-min Rain = 0
KQU1 200714Z 19009KT 28/16 A3004 RMK A01 T02800155  RH  046%=      5-min Rain = 0
KQU1 200715Z 19009KT 28/16 A3004 RMK A01 T02800155  RH  046%=      5-min Rain = 0
KQU1 200716Z 19010KT 28/16 A3004 RMK A01 T02800155  RH  046%=      5-min Rain = 0
KQU1 200717Z 19009KT 28/16 A3004 RMK A01 T02800155  RH  046%=      5-min Rain = 0
KQU1 200718Z 18011KT 28/16 A3004 RMK A01 T02810155  RH  046%=      5-min Rain = 0
KQU1 200719Z 19009KT 28/16 A3004 RMK A01 T02810155  RH  046%=      5-min Rain = 0
KQU1 200720Z 19009KT 28/16 A3004 RMK A01 T02810155  RH  046%=      5-min Rain = 0
KQU1 200721Z 20009KT 28/16 A3004 RMK A01 T02810155  RH  046%=      5-min Rain = 0
KQU1 200722Z 20007KT 28/16 A3004 RMK A01 T02800155  RH  047%=      5-min Rain = 0
KQU1 200723Z 20008KT 28/16 A3004 RMK A01 T02790156  RH  047%=      5-min Rain = 0
KQU1 200724Z 21008KT 28/16 A3004 RMK A01 T02780156  RH  047%=      5-min Rain = 0
KQU1 200725Z 21009KT 28/16 A3004 RMK A01 T02760156  RH  048%=      5-min Rain = 0
KQU1 200726Z 20009KT 28/16 A3004 RMK A01 T02760156  RH  048%=      5-min Rain = 0
KQU1 200727Z 20008KT 28/16 A3004 RMK A01 T02750156  RH  048%=      5-min Rain = 0
KQU1 200728Z 20008KT 27/16 A3004 RMK A01 T02740155  RH  048%=      5-min Rain = 0
KQU1 200729Z 20008KT 27/16 A3004 RMK A01 T02730156  RH  049%=      5-min Rain = 0
KQU1 200730Z 20009KT 27/16 A3004 RMK A01 T02730156  RH  049%=      5-min Rain = 0
KQU1 200731Z 20008KT 27/16 A3004 RMK A01 T02730156  RH  049%=      5-min Rain = 0
KQU1 200732Z 21008KT 27/16 A3004 RMK A01 T02720156  RH  049%=      5-min Rain = 0
KQU1 200733Z 21009KT 27/16 A3004 RMK A01 T02720156  RH  049%=      5-min Rain = 0
KQU1 200734Z 20008KT 27/16 A3004 RMK A01 T02710156  RH  049%=      5-min Rain = 0
KQU1 200735Z 20008KT 27/16 A3004 RMK A01 T02710156  RH  049%=      5-min Rain = 0
KQU1 200736Z 20008KT 27/16 A3004 RMK A01 T02710156  RH  049%=      5-min Rain = 0
KQU1 200737Z 20008KT 27/16 A3004 RMK A01 T02710156  RH  049%=      5-min Rain = 0
KQU1 200738Z 20008KT 27/16 A3004 RMK A01 T02710156  RH  049%=      5-min Rain = 0
KQU1 200739Z 20008KT 27/16 A3004 RMK A01 T02700156  RH  050%=      5-min Rain = 0
KQU1 200740Z 20007KT 27/16 A3004 RMK A01 T02700156  RH  050%=      5-min Rain = 0
KQU1 200741Z 20008KT 27/16 A3004 RMK A01 T02700156  RH  050%=      5-min Rain = 0
KQU1 200742Z 20007KT 27/16 A3004 RMK A01 T02690156  RH  050%=      5-min Rain = 0
KQU1 200743Z 20008KT 27/16 A3004 RMK A01 T02680156  RH  050%=      5-min Rain = 0
KQU1 200744Z 20008KT 27/16 A3004 RMK A01 T02680156  RH  050%=      5-min Rain = 0
KQU1 200745Z 20008KT 27/16 A3004 RMK A01 T02670156  RH  051%=      5-min Rain = 0
KQU1 200746Z 20007KT 27/16 A3004 RMK A01 T02660156  RH  051%=      5-min Rain = 0
KQU1 200747Z 20008KT 27/16 A3004 RMK A01 T02660156  RH  051%=      5-min Rain = 0
KQU1 200748Z 20008KT 27/16 A3004 RMK A01 T02650156  RH  051%=      5-min Rain = 0
KQU1 200749Z 20007KT 27/16 A3004 RMK A01 T02650157  RH  051%=      5-min Rain = 0
KQU1 200750Z 20007KT 26/16 A3004 RMK A01 T02640157  RH  052%=      5-min Rain = 0
KQU1 200751Z 21007KT 26/16 A3004 RMK A01 T02640157  RH  052%=      5-min Rain = 0
KQU1 200752Z 20008KT 26/16 A3004 RMK A01 T02640157  RH  052%=      5-min Rain = 0
KQU1 200753Z 20008KT 26/16 A3004 RMK A01 T02640157  RH  052%=      5-min Rain = 0
KQU1 200754Z 20009KT 26/16 A3004 RMK A01 T02640158  RH  052%=      5-min Rain = 0
KQU1 200755Z 20009KT 27/16 A3004 RMK A01 T02650158  RH  052%=      5-min Rain = 0
KQU1 200756Z 19008KT 27/16 A3004 RMK A01 T02660158  RH  051%=      5-min Rain = 0
KQU1 200757Z 20008KT 27/16 A3004 RMK A01 T02670158  RH  051%=      5-min Rain = 0
KQU1 200758Z 20008KT 27/16 A3004 RMK A01 T02680158  RH  051%=      5-min Rain = 0
KQU1 200759Z 20007KT 27/16 A3004 RMK A01 T02680158  RH  051%=      5-min Rain = 0
KQU1 200800Z 20007KT 27/16 A3004 RMK A01 T02670158  RH  051%=      5-min Rain = 0
KQU1 200801Z 20007KT 27/16 A3004 RMK A01 T02670158  RH  051%=      5-min Rain = 0
KQU1 200802Z 20007KT 27/16 A3004 RMK A01 T02660158  RH  051%=      5-min Rain = 0
KQU1 200803Z 20006KT 27/16 A3004 RMK A01 T02650158  RH  052%=      5-min Rain = 0
KQU1 200804Z 20006KT 27/16 A3004 RMK A01 T02650158  RH  052%=      5-min Rain = 0
KQU1 200805Z 20007KT 26/16 A3004 RMK A01 T02640158  RH  052%=      5-min Rain = 0
KQU1 200806Z 20006KT 26/16 A3004 RMK A01 T02630158  RH  052%=      5-min Rain = 0
KQU1 200807Z 20007KT 26/16 A3004 RMK A01 T02630159  RH  053%=      5-min Rain = 0
KQU1 200808Z 19007KT 26/16 A3004 RMK A01 T02630159  RH  053%=      5-min Rain = 0
KQU1 200809Z 20007KT 26/16 A3004 RMK A01 T02640159  RH  053%=      5-min Rain = 0
KQU1 200810Z 20007KT 26/16 A3004 RMK A01 T02640159  RH  052%=      5-min Rain = 0
KQU1 200811Z 20008KT 27/16 A3004 RMK A01 T02650159  RH  052%=      5-min Rain = 0
KQU1 200812Z 19008KT 27/16 A3004 RMK A01 T02660159  RH  052%=      5-min Rain = 0
KQU1 200813Z 20008KT 27/16 A3004 RMK A01 T02670159  RH  051%=      5-min Rain = 0
KQU1 200814Z 20008KT 27/16 A3004 RMK A01 T02690159  RH  051%=      5-min Rain = 0
KQU1 200815Z 19008KT 27/16 A3004 RMK A01 T02700159  RH  051%=      5-min Rain = 0
KQU1 200816Z 20009KT 27/16 A3004 RMK A01 T02710159  RH  050%=      5-min Rain = 0
KQU1 200817Z 19008KT 27/16 A3004 RMK A01 T02710158  RH  050%=      5-min Rain = 0
KQU1 200818Z 19008KT 27/16 A3004 RMK A01 T02720158  RH  050%=      5-min Rain = 0
KQU1 200819Z 19008KT 27/16 A3004 RMK A01 T02720158  RH  050%=      5-min Rain = 0
KQU1 200820Z 19008KT 27/16 A3004 RMK A01 T02720158  RH  050%=      5-min Rain = 0
KQU1 200821Z 19009KT 27/16 A3004 RMK A01 T02720158  RH  050%=      5-min Rain = 0
KQU1 200822Z 19008KT 27/16 A3004 RMK A01 T02720158  RH  050%=      5-min Rain = 0
KQU1 200823Z 19008KT 27/16 A3004 RMK A01 T02720158  RH  050%=      5-min Rain = 0
KQU1 200824Z 19008KT 27/16 A3004 RMK A01 T02720158  RH  050%=      5-min Rain = 0
KQU1 200825Z 19009KT 27/16 A3004 RMK A01 T02720158  RH  050%=      5-min Rain = 0
KQU1 200826Z 19008KT 27/16 A3004 RMK A01 T02720158  RH  050%=      5-min Rain = 0
KQU1 200827Z 19008KT 27/16 A3004 RMK A01 T02720158  RH  050%=      5-min Rain = 0
KQU1 200828Z 19009KT 27/16 A3004 RMK A01 T02720158  RH  050%=      5-min Rain = 0
KQU1 200829Z 19008KT 27/16 A3004 RMK A01 T02720158  RH  050%=      5-min Rain = 0
KQU1 200830Z 19008KT 27/16 A3004 RMK A01 T02710158  RH  050%=      5-min Rain = 0
KQU1 200831Z 19008KT 27/16 A3004 RMK A01 T02710158  RH  050%=      5-min Rain = 0
KQU1 200832Z 19007KT 27/16 A3005 RMK A01 T02710158  RH  050%=      5-min Rain = 0
KQU1 200833Z 19007KT 27/16 A3005 RMK A01 T02710158  RH  050%=      5-min Rain = 0
KQU1 200834Z 19008KT 27/16 A3005 RMK A01 T02710158  RH  050%=      5-min Rain = 0
KQU1 200835Z 19008KT 27/16 A3005 RMK A01 T02710158  RH  050%=      5-min Rain = 0
KQU1 200836Z 19008KT 27/16 A3005 RMK A01 T02700158  RH  050%=      5-min Rain = 0
KQU1 200837Z 19008KT 27/16 A3005 RMK A01 T02700158  RH  050%=      5-min Rain = 0
KQU1 200838Z 19008KT 27/16 A3005 RMK A01 T02700158  RH  050%=      5-min Rain = 0
KQU1 200839Z 19008KT 27/16 A3005 RMK A01 T02700158  RH  050%=      5-min Rain = 0
KQU1 200840Z 20008KT 27/16 A3005 RMK A01 T02700158  RH  050%=      5-min Rain = 0
KQU1 200841Z 20008KT 27/16 A3005 RMK A01 T02690158  RH  051%=      5-min Rain = 0
KQU1 200842Z 20008KT 27/16 A3005 RMK A01 T02680158  RH  051%=      5-min Rain = 0
KQU1 200843Z 20009KT 27/16 A3005 RMK A01 T02680159  RH  051%=      5-min Rain = 0
KQU1 200844Z 19008KT 27/16 A3005 RMK A01 T02680159  RH  051%=      5-min Rain = 0
KQU1 200845Z 19008KT 27/16 A3005 RMK A01 T02670159  RH  051%=      5-min Rain = 0
KQU1 200846Z 19008KT 27/16 A3005 RMK A01 T02670159  RH  051%=      5-min Rain = 0
KQU1 200847Z 20007KT 27/16 A3005 RMK A01 T02660159  RH  052%=      5-min Rain = 0
KQU1 200848Z 20008KT 27/16 A3005 RMK A01 T02660159  RH  052%=      5-min Rain = 0
KQU1 200849Z 20008KT 27/16 A3005 RMK A01 T02660159  RH  052%=      5-min Rain = 0
KQU1 200850Z 20008KT 27/16 A3005 RMK A01 T02650159  RH  052%=      5-min Rain = 0
KQU1 200851Z 20008KT 27/16 A3005 RMK A01 T02650159  RH  052%=      5-min Rain = 0
KQU1 200852Z 21008KT 27/16 A3005 RMK A01 T02650159  RH  052%=      5-min Rain = 0
KQU1 200853Z 20007KT 27/16 A3005 RMK A01 T02650159  RH  052%=      5-min Rain = 0
KQU1 200854Z 21007KT 27/16 A3005 RMK A01 T02650159  RH  052%=      5-min Rain = 0
KQU1 200855Z 20007KT 26/16 A3005 RMK A01 T02640159  RH  052%=      5-min Rain = 0
KQU1 200856Z 20007KT 26/16 A3005 RMK A01 T02630159  RH  053%=      5-min Rain = 0
KQU1 200857Z 21007KT 26/16 A3005 RMK A01 T02630160  RH  053%=      5-min Rain = 0
KQU1 200858Z 21007KT 26/16 A3005 RMK A01 T02630160  RH  053%=      5-min Rain = 0
KQU1 200859Z 20007KT 26/16 A3005 RMK A01 T02620160  RH  053%=      5-min Rain = 0
KQU1 200900Z 20007KT 26/16 A3005 RMK A01 T02610160  RH  054%=      5-min Rain = 0
KQU1 200901Z 20007KT 26/16 A3005 RMK A01 T02610160  RH  054%=      5-min Rain = 0
KQU1 200902Z 20008KT 26/16 A3005 RMK A01 T02610160  RH  054%=      5-min Rain = 0
KQU1 200903Z 20007KT 26/16 A3005 RMK A01 T02610160  RH  054%=      5-min Rain = 0
KQU1 200904Z 20007KT 26/16 A3005 RMK A01 T02610160  RH  054%=      5-min Rain = 0
KQU1 200905Z 20008KT 26/16 A3005 RMK A01 T02600160  RH  054%=      5-min Rain = 0
KQU1 200906Z 19008KT 26/16 A3005 RMK A01 T02600160  RH  054%=      5-min Rain = 0
KQU1 200907Z 19008KT 26/16 A3005 RMK A01 T02600160  RH  054%=      5-min Rain = 0
KQU1 200908Z 19008KT 26/16 A3005 RMK A01 T02600160  RH  054%=      5-min Rain = 0
KQU1 200909Z 19008KT 26/16 A3005 RMK A01 T02600160  RH  054%=      5-min Rain = 0
KQU1 200910Z 19007KT 26/16 A3005 RMK A01 T02600159  RH  054%=      5-min Rain = 0
KQU1 200911Z 20008KT 26/16 A3005 RMK A01 T02590159  RH  054%=      5-min Rain = 0
KQU1 200912Z 20007KT 26/16 A3005 RMK A01 T02580159  RH  054%=      5-min Rain = 0
KQU1 200913Z 20007KT 26/16 A3005 RMK A01 T02570160  RH  055%=      5-min Rain = 0
KQU1 200914Z 19011KT 26/16 A3005 RMK A01 T02570160  RH  055%=      5-min Rain = 0
KQU1 200915Z 19009KT 26/16 A3005 RMK A01 T02610160  RH  054%=      5-min Rain = 0
KQU1 200916Z 19008KT 26/16 A3005 RMK A01 T02640159  RH  052%=      5-min Rain = 0
KQU1 200917Z 19008KT 27/16 A3005 RMK A01 T02650159  RH  052%=      5-min Rain = 0
KQU1 200918Z 19009KT 27/16 A3005 RMK A01 T02650158  RH  052%=      5-min Rain = 0
KQU1 200919Z 20008KT 27/16 A3005 RMK A01 T02660159  RH  052%=      5-min Rain = 0
KQU1 200920Z 19009KT 27/16 A3005 RMK A01 T02660158  RH  052%=      5-min Rain = 0
KQU1 200921Z 19009KT 27/16 A3005 RMK A01 T02660158  RH  052%=      5-min Rain = 0
KQU1 200922Z 20009KT 27/16 A3005 RMK A01 T02660159  RH  052%=      5-min Rain = 0
KQU1 200923Z 19010KT 27/16 A3005 RMK A01 T02650159  RH  052%=      5-min Rain = 0
KQU1 200924Z 19009KT 27/16 A3005 RMK A01 T02660159  RH  052%=      5-min Rain = 0
KQU1 200925Z 19009KT 27/16 A3005 RMK A01 T02660159  RH  052%=      5-min Rain = 0
KQU1 200926Z 20009KT 27/16 A3005 RMK A01 T02660159  RH  052%=      5-min Rain = 0
KQU1 200927Z 20009KT 27/16 A3005 RMK A01 T02660159  RH  052%=      5-min Rain = 0
KQU1 200928Z 19010KT 27/16 A3005 RMK A01 T02660159  RH  052%=      5-min Rain = 0
KQU1 200929Z 19010KT 27/16 A3005 RMK A01 T02660159  RH  052%=      5-min Rain = 0
KQU1 200930Z 19009KT 27/16 A3005 RMK A01 T02660159  RH  052%=      5-min Rain = 0
KQU1 200931Z 19009KT 27/16 A3005 RMK A01 T02660159  RH  052%=      5-min Rain = 0
KQU1 200932Z 19009KT 27/16 A3005 RMK A01 T02660158  RH  052%=      5-min Rain = 0
KQU1 200933Z 19009KT 27/16 A3005 RMK A01 T02650158  RH  052%=      5-min Rain = 0
KQU1 200934Z 19009KT 27/16 A3005 RMK A01 T02650158  RH  052%=      5-min Rain = 0
KQU1 200935Z 19009KT 27/16 A3005 RMK A01 T02650158  RH  052%=      5-min Rain = 0
KQU1 200936Z 19009KT 26/16 A3005 RMK A01 T02640158  RH  052%=      5-min Rain = 0
KQU1 200937Z 19009KT 26/16 A3005 RMK A01 T02630158  RH  052%=      5-min Rain = 0
KQU1 200938Z 20009KT 26/16 A3005 RMK A01 T02630158  RH  053%=      5-min Rain = 0
KQU1 200939Z 19009KT 26/16 A3005 RMK A01 T02610159  RH  053%=      5-min Rain = 0
KQU1 200940Z 20009KT 26/16 A3005 RMK A01 T02600159  RH  053%=      5-min Rain = 0
KQU1 200941Z 20008KT 26/16 A3005 RMK A01 T02590159  RH  054%=      5-min Rain = 0
KQU1 200942Z 21008KT 26/16 A3005 RMK A01 T02580159  RH  054%=      5-min Rain = 0
KQU1 200943Z 20009KT 26/16 A3005 RMK A01 T02570159  RH  055%=      5-min Rain = 0
KQU1 200944Z 21008KT 26/16 A3005 RMK A01 T02560159  RH  055%=      5-min Rain = 0
KQU1 200945Z 21009KT 26/16 A3005 RMK A01 T02560159  RH  055%=      5-min Rain = 0
KQU1 200946Z 21009KT 26/16 A3005 RMK A01 T02550159  RH  055%=      5-min Rain = 0
KQU1 200947Z 20009KT 26/16 A3005 RMK A01 T02550160  RH  055%=      5-min Rain = 0
KQU1 200948Z 20009KT 26/16 A3005 RMK A01 T02560159  RH  055%=      5-min Rain = 0
KQU1 200949Z 20009KT 26/16 A3005 RMK A01 T02560159  RH  055%=      5-min Rain = 0
KQU1 200950Z 20009KT 26/16 A3005 RMK A01 T02560159  RH  055%=      5-min Rain = 0
KQU1 200951Z 20009KT 26/16 A3005 RMK A01 T02570159  RH  055%=      5-min Rain = 0
KQU1 200952Z 20008KT 26/16 A3005 RMK A01 T02570159  RH  054%=      5-min Rain = 0
KQU1 200953Z 20008KT 26/16 A3005 RMK A01 T02580159  RH  054%=      5-min Rain = 0
KQU1 200954Z 20008KT 26/16 A3005 RMK A01 T02580159  RH  054%=      5-min Rain = 0
KQU1 200955Z 20008KT 26/16 A3005 RMK A01 T02580159  RH  054%=      5-min Rain = 0
KQU1 200956Z 20008KT 26/16 A3005 RMK A01 T02580159  RH  054%=      5-min Rain = 0
KQU1 200957Z 19007KT 26/16 A3005 RMK A01 T02570159  RH  054%=      5-min Rain = 0
KQU1 200958Z 20008KT 26/16 A3005 RMK A01 T02560159  RH  055%=      5-min Rain = 0
KQU1 200959Z 20008KT 26/16 A3005 RMK A01 T02550159  RH  055%=      5-min Rain = 0
KQU1 201000Z 20008KT 26/16 A3005 RMK A01 T02550159  RH  055%=      5-min Rain = 0
KQU1 201001Z 20009KT 25/16 A3005 RMK A01 T02540159  RH  055%=      5-min Rain = 0
KQU1 201002Z 20009KT 25/16 A3005 RMK A01 T02540159  RH  055%=      5-min Rain = 0
KQU1 201003Z 20009KT 25/16 A3005 RMK A01 T02540159  RH  055%=      5-min Rain = 0
KQU1 201004Z 20009KT 25/16 A3005 RMK A01 T02540159  RH  056%=      5-min Rain = 0
KQU1 201005Z 20009KT 25/16 A3005 RMK A01 T02540159  RH  056%=      5-min Rain = 0
KQU1 201006Z 20008KT 25/16 A3005 RMK A01 T02540159  RH  056%=      5-min Rain = 0
KQU1 201007Z 20009KT 25/16 A3005 RMK A01 T02540159  RH  056%=      5-min Rain = 0
KQU1 201008Z 21009KT 25/16 A3005 RMK A01 T02540159  RH  056%=      5-min Rain = 0
KQU1 201009Z 21009KT 25/16 A3005 RMK A01 T02540159  RH  056%=      5-min Rain = 0
KQU1 201010Z 21009KT 25/16 A3005 RMK A01 T02540159  RH  056%=      5-min Rain = 0
KQU1 201011Z 21009KT 25/16 A3005 RMK A01 T02540159  RH  055%=      5-min Rain = 0
KQU1 201012Z 21010KT 25/16 A3005 RMK A01 T02540159  RH  055%=      5-min Rain = 0
KQU1 201013Z 20010KT 26/16 A3005 RMK A01 T02550158  RH  055%=      5-min Rain = 0
KQU1 201014Z 20009KT 26/16 A3005 RMK A01 T02560158  RH  055%=      5-min Rain = 0
KQU1 201015Z 20010KT 26/16 A3005 RMK A01 T02560158  RH  055%=      5-min Rain = 0
KQU1 201016Z 20010KT 26/16 A3005 RMK A01 T02570158  RH  054%=      5-min Rain = 0
KQU1 201017Z 20010KT 26/16 A3005 RMK A01 T02570158  RH  054%=      5-min Rain = 0
KQU1 201018Z 20010KT 26/16 A3005 RMK A01 T02580158  RH  054%=      5-min Rain = 0
KQU1 201019Z 20010KT 26/16 A3005 RMK A01 T02580158  RH  054%=      5-min Rain = 0
KQU1 201020Z 20010KT 26/16 A3005 RMK A01 T02580158  RH  054%=      5-min Rain = 0
KQU1 201021Z 20009KT 26/16 A3005 RMK A01 T02580158  RH  054%=      5-min Rain = 0
KQU1 201022Z 20010KT 26/16 A3005 RMK A01 T02580158  RH  054%=      5-min Rain = 0
KQU1 201023Z 20009KT 26/16 A3005 RMK A01 T02570158  RH  054%=      5-min Rain = 0
KQU1 201024Z 20009KT 26/16 A3005 RMK A01 T02570158  RH  054%=      5-min Rain = 0
KQU1 201025Z 20009KT 26/16 A3005 RMK A01 T02560158  RH  055%=      5-min Rain = 0
KQU1 201026Z 21009KT 26/16 A3005 RMK A01 T02550158  RH  055%=      5-min Rain = 0
KQU1 201027Z 21009KT 26/16 A3005 RMK A01 T02550158  RH  055%=      5-min Rain = 0
KQU1 201028Z 21009KT 25/16 A3005 RMK A01 T02540158  RH  055%=      5-min Rain = 0
KQU1 201029Z 21009KT 25/16 A3005 RMK A01 T02540158  RH  055%=      5-min Rain = 0
KQU1 201030Z 21009KT 25/16 A3005 RMK A01 T02530158  RH  055%=      5-min Rain = 0
KQU1 201031Z 21009KT 25/16 A3005 RMK A01 T02530158  RH  056%=      5-min Rain = 0
KQU1 201032Z 21009KT 25/16 A3005 RMK A01 T02530158  RH  056%=      5-min Rain = 0
KQU1 201033Z 21009KT 25/16 A3005 RMK A01 T02530158  RH  056%=      5-min Rain = 0
KQU1 201034Z 21009KT 25/16 A3005 RMK A01 T02530158  RH  056%=      5-min Rain = 0
KQU1 201035Z 21009KT 25/16 A3005 RMK A01 T02530157  RH  055%=      5-min Rain = 0
KQU1 201036Z 21009KT 25/16 A3005 RMK A01 T02530157  RH  055%=      5-min Rain = 0
KQU1 201037Z 21009KT 25/16 A3005 RMK A01 T02530157  RH  055%=      5-min Rain = 0
KQU1 201038Z 21009KT 25/16 A3005 RMK A01 T02530157  RH  055%=      5-min Rain = 0
KQU1 201039Z 22008KT 25/16 A3006 RMK A01 T02520157  RH  055%=      5-min Rain = 0
KQU1 201040Z 22009KT 25/16 A3006 RMK A01 T02520157  RH  055%=      5-min Rain = 0
KQU1 201041Z 22008KT 25/16 A3006 RMK A01 T02530157  RH  055%=      5-min Rain = 0
KQU1 201042Z 22008KT 25/16 A3006 RMK A01 T02530157  RH  055%=      5-min Rain = 0
KQU1 201043Z 22009KT 25/16 A3006 RMK A01 T02540157  RH  055%=      5-min Rain = 0
KQU1 201044Z 22009KT 26/16 A3006 RMK A01 T02550156  RH  054%=      5-min Rain = 0
KQU1 201045Z 22010KT 26/16 A3005 RMK A01 T02570156  RH  054%=      5-min Rain = 0
KQU1 201046Z 22010KT 26/16 A3005 RMK A01 T02580156  RH  053%=      5-min Rain = 0
KQU1 201047Z 22010KT 26/16 A3006 RMK A01 T02590156  RH  053%=      5-min Rain = 0
KQU1 201048Z 22009KT 26/16 A3006 RMK A01 T02600155  RH  052%=      5-min Rain = 0
KQU1 201049Z 21009KT 26/16 A3006 RMK A01 T02600155  RH  052%=      5-min Rain = 0
KQU1 201050Z 21010KT 26/16 A3006 RMK A01 T02610155  RH  052%=      5-min Rain = 0
KQU1 201051Z 21009KT 26/16 A3006 RMK A01 T02610155  RH  052%=      5-min Rain = 0
KQU1 201052Z 21009KT 26/16 A3006 RMK A01 T02620155  RH  052%=      5-min Rain = 0
KQU1 201053Z 21009KT 26/16 A3006 RMK A01 T02620155  RH  052%=      5-min Rain = 0
KQU1 201054Z 21009KT 26/16 A3006 RMK A01 T02620155  RH  052%=      5-min Rain = 0
KQU1 201055Z 21010KT 26/16 A3005 RMK A01 T02620155  RH  052%=      5-min Rain = 0
KQU1 201056Z 20010KT 26/16 A3005 RMK A01 T02630155  RH  051%=      5-min Rain = 0
KQU1 201057Z 20011KT 26/16 A3005 RMK A01 T02630155  RH  051%=      5-min Rain = 0
KQU1 201058Z 20010KT 26/15 A3005 RMK A01 T02630154  RH  051%=      5-min Rain = 0
KQU1 201059Z 20009KT 26/15 A3005 RMK A01 T02630154  RH  051%=      5-min Rain = 0
KQU1 201100Z 20009KT 26/16 A3005 RMK A01 T02630155  RH  051%=      5-min Rain = 0
KQU1 201101Z 20009KT 26/15 A3005 RMK A01 T02630154  RH  051%=      5-min Rain = 0
KQU1 201102Z 20009KT 26/16 A3005 RMK A01 T02630155  RH  051%=      5-min Rain = 0
KQU1 201103Z 20008KT 26/16 A3005 RMK A01 T02620155  RH  052%=      5-min Rain = 0
KQU1 201104Z 20009KT 26/16 A3005 RMK A01 T02620155  RH  052%=      5-min Rain = 0
KQU1 201105Z 20009KT 26/16 A3005 RMK A01 T02610155  RH  052%=      5-min Rain = 0
KQU1 201106Z 20008KT 26/16 A3005 RMK A01 T02610155  RH  052%=      5-min Rain = 0
KQU1 201107Z 20008KT 26/16 A3006 RMK A01 T02600155  RH  052%=      5-min Rain = 0
KQU1 201108Z 20008KT 26/16 A3006 RMK A01 T02590155  RH  052%=      5-min Rain = 0
KQU1 201109Z 20008KT 26/16 A3006 RMK A01 T02590155  RH  053%=      5-min Rain = 0
KQU1 201110Z 20008KT 26/16 A3006 RMK A01 T02580155  RH  053%=      5-min Rain = 0
KQU1 201111Z 19008KT 26/16 A3006 RMK A01 T02580155  RH  053%=      5-min Rain = 0
KQU1 201112Z 19008KT 26/16 A3006 RMK A01 T02570155  RH  053%=      5-min Rain = 0
KQU1 201113Z 19008KT 26/16 A3006 RMK A01 T02560155  RH  054%=      5-min Rain = 0
KQU1 201114Z 18008KT 26/16 A3006 RMK A01 T02550156  RH  054%=      5-min Rain = 0
KQU1 201115Z 18008KT 25/16 A3006 RMK A01 T02530156  RH  055%=      5-min Rain = 0
KQU1 201116Z 18008KT 25/16 A3006 RMK A01 T02520156  RH  055%=      5-min Rain = 0
KQU1 201117Z 18008KT 25/16 A3006 RMK A01 T02510156  RH  055%=      5-min Rain = 0
KQU1 201118Z 17008KT 25/16 A3006 RMK A01 T02510156  RH  056%=      5-min Rain = 0
KQU1 201119Z 17008KT 25/16 A3006 RMK A01 T02510156  RH  056%=      5-min Rain = 0
KQU1 201120Z 17009KT 25/16 A3006 RMK A01 T02500156  RH  056%=      5-min Rain = 0
KQU1 201121Z 17009KT 25/16 A3006 RMK A01 T02510156  RH  056%=      5-min Rain = 0
KQU1 201122Z 17009KT 25/16 A3006 RMK A01 T02510156  RH  056%=      5-min Rain = 0
KQU1 201123Z 17009KT 25/16 A3006 RMK A01 T02510156  RH  056%=      5-min Rain = 0
KQU1 201124Z 17009KT 25/16 A3006 RMK A01 T02510156  RH  055%=      5-min Rain = 0
KQU1 201125Z 17009KT 25/16 A3006 RMK A01 T02510156  RH  055%=      5-min Rain = 0
KQU1 201126Z 17009KT 25/16 A3006 RMK A01 T02510156  RH  055%=      5-min Rain = 0
KQU1 201127Z 17009KT 25/16 A3006 RMK A01 T02500156  RH  056%=      5-min Rain = 0
KQU1 201128Z 17009KT 25/16 A3006 RMK A01 T02500156  RH  056%=      5-min Rain = 0
KQU1 201129Z 17009KT 25/16 A3006 RMK A01 T02500156  RH  056%=      5-min Rain = 0
KQU1 201130Z 18008KT 25/16 A3006 RMK A01 T02490156  RH  056%=      5-min Rain = 0
KQU1 201131Z 18009KT 25/16 A3006 RMK A01 T02490156  RH  056%=      5-min Rain = 0
KQU1 201132Z 18008KT 25/16 A3006 RMK A01 T02480156  RH  056%=      5-min Rain = 0
KQU1 201133Z 18008KT 25/16 A3006 RMK A01 T02480156  RH  056%=      5-min Rain = 0
KQU1 201134Z 18008KT 25/16 A3006 RMK A01 T02480156  RH  056%=      5-min Rain = 0
KQU1 201135Z 18007KT 25/16 A3006 RMK A01 T02480156  RH  056%=      5-min Rain = 0
KQU1 201136Z 18008KT 25/16 A3006 RMK A01 T02480156  RH  056%=      5-min Rain = 0
KQU1 201137Z 19008KT 25/16 A3006 RMK A01 T02480156  RH  056%=      5-min Rain = 0
KQU1 201138Z 19007KT 25/16 A3006 RMK A01 T02480155  RH  056%=      5-min Rain = 0
KQU1 201139Z 19007KT 25/16 A3006 RMK A01 T02490155  RH  056%=      5-min Rain = 0
KQU1 201140Z 19007KT 25/16 A3006 RMK A01 T02490155  RH  056%=      5-min Rain = 0
KQU1 201141Z 19007KT 25/16 A3006 RMK A01 T02490155  RH  056%=      5-min Rain = 0
KQU1 201142Z 19007KT 25/16 A3006 RMK A01 T02490155  RH  056%=      5-min Rain = 0
KQU1 201143Z 19006KT 25/16 A3006 RMK A01 T02490155  RH  056%=      5-min Rain = 0
KQU1 201144Z 19007KT 25/16 A3006 RMK A01 T02490155  RH  056%=      5-min Rain = 0
KQU1 201145Z 19006KT 25/16 A3006 RMK A01 T02480155  RH  056%=      5-min Rain = 0
KQU1 201146Z 19006KT 25/15 A3006 RMK A01 T02480154  RH  056%=      5-min Rain = 0
KQU1 201147Z 19006KT 25/15 A3006 RMK A01 T02470154  RH  056%=      5-min Rain = 0
KQU1 201148Z 19006KT 25/15 A3006 RMK A01 T02460154  RH  057%=      5-min Rain = 0
KQU1 201149Z 19006KT 25/15 A3007 RMK A01 T02450154  RH  057%=      5-min Rain = 0
KQU1 201150Z 19006KT 24/15 A3007 RMK A01 T02440154  RH  057%=      5-min Rain = 0
KQU1 201151Z 19007KT 24/15 A3007 RMK A01 T02430154  RH  058%=      5-min Rain = 0
KQU1 201152Z 19006KT 24/15 A3007 RMK A01 T02420154  RH  058%=      5-min Rain = 0
KQU1 201153Z 19006KT 24/15 A3007 RMK A01 T02410154  RH  058%=      5-min Rain = 0
KQU1 201154Z 19007KT 24/16 A3007 RMK A01 T02400155  RH  059%=      5-min Rain = 0
KQU1 201155Z 19006KT 24/16 A3007 RMK A01 T02400155  RH  059%=      5-min Rain = 0
KQU1 201156Z 19006KT 24/16 A3007 RMK A01 T02390155  RH  059%=      5-min Rain = 0
KQU1 201157Z 19006KT 24/16 A3007 RMK A01 T02390155  RH  059%=      5-min Rain = 0
KQU1 201158Z 20006KT 24/16 A3007 RMK A01 T02390155  RH  059%=      5-min Rain = 0
KQU1 201159Z 20006KT 24/16 A3007 RMK A01 T02390155  RH  059%=      5-min Rain = 0
KQU1 201200Z 20006KT 24/16 A3007 RMK A01 T02390155  RH  059%=      5-min Rain = 0
KQU1 201201Z 20006KT 24/16 A3007 RMK A01 T02400155  RH  059%=      5-min Rain = 0
KQU1 201202Z 20006KT 24/16 A3007 RMK A01 T02400155  RH  059%=      5-min Rain = 0
KQU1 201203Z 20006KT 24/16 A3007 RMK A01 T02400155  RH  059%=      5-min Rain = 0
KQU1 201204Z 20006KT 24/16 A3007 RMK A01 T02410155  RH  059%=      5-min Rain = 0
KQU1 201205Z 20006KT 24/16 A3007 RMK A01 T02420155  RH  058%=      5-min Rain = 0
KQU1 201206Z 20006KT 24/16 A3007 RMK A01 T02430155  RH  058%=      5-min Rain = 0
KQU1 201207Z 21006KT 24/16 A3007 RMK A01 T02440155  RH  057%=      5-min Rain = 0
KQU1 201208Z 21006KT 25/16 A3007 RMK A01 T02450155  RH  057%=      5-min Rain = 0
KQU1 201209Z 21005KT 25/16 A3007 RMK A01 T02460155  RH  057%=      5-min Rain = 0
KQU1 201210Z 21006KT 25/16 A3007 RMK A01 T02460155  RH  057%=      5-min Rain = 0
KQU1 201211Z 21007KT 25/16 A3007 RMK A01 T02470155  RH  057%=      5-min Rain = 0
KQU1 201212Z 20006KT 25/16 A3007 RMK A01 T02490155  RH  056%=      5-min Rain = 0
KQU1 201213Z 21007KT 25/16 A3007 RMK A01 T02510155  RH  055%=      5-min Rain = 0
KQU1 201214Z 21007KT 25/15 A3007 RMK A01 T02530154  RH  054%=      5-min Rain = 0
KQU1 201215Z 21007KT 26/15 A3007 RMK A01 T02550154  RH  054%=      5-min Rain = 0
KQU1 201216Z 21007KT 26/15 A3007 RMK A01 T02560154  RH  053%=      5-min Rain = 0
KQU1 201217Z 21008KT 26/15 A3007 RMK A01 T02580154  RH  053%=      5-min Rain = 0
KQU1 201218Z 21008KT 26/15 A3007 RMK A01 T02600154  RH  052%=      5-min Rain = 0
KQU1 201219Z 21008KT 26/15 A3007 RMK A01 T02610153  RH  051%=      5-min Rain = 0
KQU1 201220Z 21008KT 26/15 A3007 RMK A01 T02620153  RH  051%=      5-min Rain = 0
KQU1 201221Z 21007KT 26/15 A3007 RMK A01 T02630153  RH  051%=      5-min Rain = 0
KQU1 201222Z 21009KT 26/15 A3007 RMK A01 T02640153  RH  050%=      5-min Rain = 0
KQU1 201223Z 21007KT 26/15 A3007 RMK A01 T02640153  RH  050%=      5-min Rain = 0
KQU1 201224Z 21007KT 26/15 A3008 RMK A01 T02640153  RH  050%=      5-min Rain = 0
KQU1 201225Z 20006KT 26/15 A3008 RMK A01 T02640153  RH  050%=      5-min Rain = 0
KQU1 201226Z 20007KT 26/15 A3008 RMK A01 T02630153  RH  051%=      5-min Rain = 0
KQU1 201227Z 21006KT 26/15 A3007 RMK A01 T02630153  RH  051%=      5-min Rain = 0
KQU1 201228Z 21007KT 26/15 A3007 RMK A01 T02630153  RH  051%=      5-min Rain = 0
KQU1 201229Z 21007KT 26/15 A3007 RMK A01 T02630153  RH  051%=      5-min Rain = 0
KQU1 201230Z 21007KT 26/15 A3007 RMK A01 T02630153  RH  051%=      5-min Rain = 0
KQU1 201231Z 22007KT 26/15 A3007 RMK A01 T02630153  RH  051%=      5-min Rain = 0
KQU1 201232Z 22006KT 26/15 A3007 RMK A01 T02630153  RH  051%=      5-min Rain = 0
KQU1 201233Z 22008KT 26/15 A3007 RMK A01 T02640153  RH  051%=      5-min Rain = 0
KQU1 201234Z 22009KT 26/15 A3007 RMK A01 T02640154  RH  051%=      5-min Rain = 0
KQU1 201235Z 22007KT 27/15 A3007 RMK A01 T02650154  RH  050%=      5-min Rain = 0
KQU1 201236Z 22010KT 27/15 A3007 RMK A01 T02650154  RH  050%=      5-min Rain = 0
KQU1 201237Z 22010KT 27/15 A3007 RMK A01 T02670153  RH  050%=      5-min Rain = 0
KQU1 201238Z 23010KT 27/15 A3007 RMK A01 T02680153  RH  049%=      5-min Rain = 0
KQU1 201239Z 22009KT 27/15 A3007 RMK A01 T02690153  RH  049%=      5-min Rain = 0
KQU1 201240Z 23010KT 27/15 A3007 RMK A01 T02690153  RH  049%=      5-min Rain = 0
KQU1 201241Z 23010KT 27/15 A3007 RMK A01 T02700153  RH  049%=      5-min Rain = 0
KQU1 201242Z 23011KT 27/15 A3007 RMK A01 T02710153  RH  049%=      5-min Rain = 0
KQU1 201243Z 23012KT 27/15 A3007 RMK A01 T02720153  RH  048%=      5-min Rain = 0
KQU1 201244Z 23011KT 27/15 A3007 RMK A01 T02720153  RH  048%=      5-min Rain = 0
KQU1 201245Z 22010KT 27/15 A3007 RMK A01 T02730153  RH  048%=      5-min Rain = 0
KQU1 201246Z 23011KT 27/15 A3007 RMK A01 T02730153  RH  048%=      5-min Rain = 0
KQU1 201247Z 23010KT 27/15 A3007 RMK A01 T02740153  RH  048%=      5-min Rain = 0
KQU1 201248Z 22010KT 27/15 A3007 RMK A01 T02740154  RH  048%=      5-min Rain = 0
KQU1 201249Z 22011KT 28/15 A3008 RMK A01 T02750153  RH  047%=      5-min Rain = 0
KQU1 201250Z 21008KT 28/15 A3008 RMK A01 T02760154  RH  047%=      5-min Rain = 0
KQU1 201251Z 21009KT 28/15 A3008 RMK A01 T02760153  RH  047%=      5-min Rain = 0
KQU1 201252Z 20008KT 28/15 A3008 RMK A01 T02760153  RH  047%=      5-min Rain = 0
KQU1 201253Z 19007KT 28/15 A3008 RMK A01 T02760154  RH  047%=      5-min Rain = 0
KQU1 201254Z 20007KT 28/15 A3008 RMK A01 T02760154  RH  047%=      5-min Rain = 0
KQU1 201255Z 19007KT 28/15 A3008 RMK A01 T02760154  RH  047%=      5-min Rain = 0
KQU1 201256Z 19006KT 28/16 A3008 RMK A01 T02760155  RH  047%=      5-min Rain = 0
KQU1 201257Z 20007KT 28/16 A3008 RMK A01 T02760155  RH  048%=      5-min Rain = 0
KQU1 201258Z 19006KT 28/16 A3008 RMK A01 T02760155  RH  048%=      5-min Rain = 0
KQU1 201259Z 19006KT 28/16 A3008 RMK A01 T02760155  RH  048%=      5-min Rain = 0
KQU1 201300Z 19006KT 28/16 A3008 RMK A01 T02760156  RH  048%=      5-min Rain = 0
KQU1 201301Z 20006KT 28/16 A3008 RMK A01 T02760155  RH  048%=      5-min Rain = 0
KQU1 201302Z 19005KT 28/16 A3008 RMK A01 T02760156  RH  048%=      5-min Rain = 0
KQU1 201303Z 19007KT 28/16 A3008 RMK A01 T02770156  RH  048%=      5-min Rain = 0
KQU1 201304Z 19007KT 28/16 A3008 RMK A01 T02770156  RH  048%=      5-min Rain = 0
KQU1 201305Z 19007KT 28/16 A3008 RMK A01 T02770156  RH  047%=      5-min Rain = 0
KQU1 201306Z 19007KT 28/16 A3008 RMK A01 T02770156  RH  047%=      5-min Rain = 0
KQU1 201307Z 20007KT 28/16 A3008 RMK A01 T02780156  RH  047%=      5-min Rain = 0
KQU1 201308Z 19007KT 28/16 A3008 RMK A01 T02780156  RH  047%=      5-min Rain = 0
KQU1 201309Z 20007KT 28/16 A3008 RMK A01 T02790156  RH  047%=      5-min Rain = 0
KQU1 201310Z 20009KT 28/16 A3008 RMK A01 T02790155  RH  047%=      5-min Rain = 0
KQU1 201311Z 20009KT 28/16 A3008 RMK A01 T02790156  RH  047%=      5-min Rain = 0
KQU1 201312Z 20008KT 28/16 A3008 RMK A01 T02800156  RH  047%=      5-min Rain = 0
KQU1 201313Z 20007KT 28/16 A3008 RMK A01 T02800156  RH  047%=      5-min Rain = 0
KQU1 201314Z 21007KT 28/16 A3008 RMK A01 T02810156  RH  047%=      5-min Rain = 0
KQU1 201315Z 20009KT 28/16 A3008 RMK A01 T02810156  RH  046%=      5-min Rain = 0
KQU1 201316Z 20009KT 28/16 A3008 RMK A01 T02810156  RH  046%=      5-min Rain = 0
KQU1 201317Z 20008KT 28/16 A3008 RMK A01 T02810156  RH  046%=      5-min Rain = 0
KQU1 201318Z 20009KT 28/16 A3008 RMK A01 T02810156  RH  046%=      5-min Rain = 0
KQU1 201319Z 20009KT 28/16 A3008 RMK A01 T02820156  RH  046%=      5-min Rain = 0
KQU1 201320Z 20009KT 28/16 A3008 RMK A01 T02820156  RH  046%=      5-min Rain = 0
KQU1 201321Z 21008KT 28/16 A3008 RMK A01 T02820156  RH  046%=      5-min Rain = 0
KQU1 201322Z 20008KT 28/16 A3008 RMK A01 T02830156  RH  046%=      5-min Rain = 0
KQU1 201323Z 20010KT 28/16 A3008 RMK A01 T02830156  RH  046%=      5-min Rain = 0
KQU1 201324Z 20010KT 28/16 A3008 RMK A01 T02840155  RH  046%=      5-min Rain = 0
KQU1 201325Z 20010KT 28/16 A3008 RMK A01 T02840156  RH  046%=      5-min Rain = 0
KQU1 201326Z 20010KT 28/16 A3008 RMK A01 T02840155  RH  045%=      5-min Rain = 0
KQU1 201327Z 20009KT 29/16 A3008 RMK A01 T02850156  RH  046%=      5-min Rain = 0
KQU1 201328Z 20010KT 29/16 A3008 RMK A01 T02850155  RH  045%=      5-min Rain = 0
KQU1 201329Z 20009KT 29/16 A3008 RMK A01 T02860155  RH  045%=      5-min Rain = 0
KQU1 201330Z 21008KT 29/16 A3008 RMK A01 T02870156  RH  045%=      5-min Rain = 0
KQU1 201331Z 20009KT 29/16 A3008 RMK A01 T02870155  RH  045%=      5-min Rain = 0
KQU1 201332Z 21009KT 29/16 A3008 RMK A01 T02880156  RH  045%=      5-min Rain = 0
KQU1 201333Z 21010KT 29/16 A3008 RMK A01 T02880156  RH  044%=      5-min Rain = 0
KQU1 201334Z 20008KT 29/16 A3008 RMK A01 T02890155  RH  044%=      5-min Rain = 0
KQU1 201335Z 22009KT 29/16 A3008 RMK A01 T02890156  RH  044%=      5-min Rain = 0
KQU1 201336Z 21009KT 29/16 A3008 RMK A01 T02900156  RH  044%=      5-min Rain = 0
KQU1 201337Z 22011KT 29/16 A3008 RMK A01 T02910155  RH  044%=      5-min Rain = 0
KQU1 201338Z 21010KT 29/15 A3008 RMK A01 T02900154  RH  044%=      5-min Rain = 0
KQU1 201339Z 23012KT 29/16 A3008 RMK A01 T02910155  RH  044%=      5-min Rain = 0
KQU1 201340Z 22013KT 29/15 A3008 RMK A01 T02910154  RH  043%=      5-min Rain = 0
KQU1 201341Z 22011KT 29/16 A3009 RMK A01 T02920155  RH  043%=      5-min Rain = 0
KQU1 201342Z 22013KT 29/15 A3009 RMK A01 T02930154  RH  043%=      5-min Rain = 0
KQU1 201343Z 22015KT 29/15 A3009 RMK A01 T02930153  RH  043%=      5-min Rain = 0
KQU1 201344Z 22013KT 29/15 A3009 RMK A01 T02930154  RH  043%=      5-min Rain = 0
KQU1 201345Z 22014KT 29/15 A3009 RMK A01 T02930154  RH  043%=      5-min Rain = 0
KQU1 201346Z 22015KT 29/15 A3009 RMK A01 T02940154  RH  043%=      5-min Rain = 0
KQU1 201347Z 23015KT 29/15 A3009 RMK A01 T02940153  RH  042%=      5-min Rain = 0
KQU1 201348Z 23014KT 30/15 A3009 RMK A01 T02950154  RH  042%=      5-min Rain = 0
KQU1 201349Z 22016KT 30/15 A3009 RMK A01 T02950153  RH  042%=      5-min Rain = 0
KQU1 201350Z 23013KT 30/15 A3009 RMK A01 T02950154  RH  042%=      5-min Rain = 0
KQU1 201351Z 23015KT 30/15 A3009 RMK A01 T02960153  RH  042%=      5-min Rain = 0
KQU1 201352Z 23017KT 30/15 A3008 RMK A01 T02950152  RH  042%=      5-min Rain = 0
KQU1 201353Z 22014KT 30/15 A3009 RMK A01 T02960153  RH  042%=      5-min Rain = 0
KQU1 201354Z 22014KT 30/15 A3009 RMK A01 T02960154  RH  042%=      5-min Rain = 0
KQU1 201355Z 23015G22KT 30/15 A3009 RMK A01 T02980154  RH  042%=      5-min Rain = 0
KQU1 201356Z 22015KT 30/15 A3008 RMK A01 T02980153  RH  041%=      5-min Rain = 0
KQU1 201357Z 22014KT 30/15 A3009 RMK A01 T02980153  RH  041%=      5-min Rain = 0
KQU1 201358Z 22015KT 30/15 A3009 RMK A01 T02980153  RH  041%=      5-min Rain = 0
KQU1 201359Z 22016G21KT 30/15 A3009 RMK A01 T02980152  RH  041%=      5-min Rain = 0
KQU1 201400Z 22017KT 30/15 A3009 RMK A01 T02980153  RH  041%=      5-min Rain = 0
KQU1 201401Z 23016KT 30/15 A3009 RMK A01 T02980153  RH  041%=      5-min Rain = 0
KQU1 201402Z 22016KT 30/15 A3009 RMK A01 T02990153  RH  041%=      5-min Rain = 0
KQU1 201403Z 22017KT 30/15 A3008 RMK A01 T02990153  RH  041%=      5-min Rain = 0
KQU1 201404Z 23018KT 30/15 A3008 RMK A01 T02990153  RH  041%=      5-min Rain = 0
KQU1 201405Z 22015KT 30/15 A3009 RMK A01 T02990153  RH  041%=      5-min Rain = 0
KQU1 201406Z 23019KT 30/15 A3008 RMK A01 T03000153  RH  041%=      5-min Rain = 0
KQU1 201407Z 23019KT 30/15 A3008 RMK A01 T03000153  RH  041%=      5-min Rain = 0
KQU1 201408Z 23019KT 30/15 A3009 RMK A01 T03000153  RH  041%=      5-min Rain = 0
KQU1 201409Z 23017KT 30/15 A3009 RMK A01 T03000153  RH  041%=      5-min Rain = 0
KQU1 201410Z 23016KT 30/15 A3008 RMK A01 T03000154  RH  041%=      5-min Rain = 0
KQU1 201411Z 22017KT 30/15 A3008 RMK A01 T03010153  RH  041%=      5-min Rain = 0
KQU1 201412Z 23018KT 30/15 A3008 RMK A01 T03020153  RH  041%=      5-min Rain = 0
KQU1 201413Z 23019KT 30/15 A3008 RMK A01 T03020153  RH  041%=      5-min Rain = 0
KQU1 201414Z 23018KT 30/15 A3009 RMK A01 T03020153  RH  041%=      5-min Rain = 0
KQU1 201415Z 23015KT 30/15 A3009 RMK A01 T03020154  RH  041%=      5-min Rain = 0
KQU1 201416Z 23017KT 30/15 A3009 RMK A01 T03030154  RH  040%=      5-min Rain = 0
KQU1 201417Z 23017G22KT 30/15 A3009 RMK A01 T03040154  RH  040%=      5-min Rain = 0
KQU1 201418Z 23017KT 30/15 A3009 RMK A01 T03040153  RH  040%=      5-min Rain = 0
KQU1 201419Z 23015G21KT 30/15 A3009 RMK A01 T03040154  RH  040%=      5-min Rain = 0
KQU1 201420Z 23017KT 30/15 A3009 RMK A01 T03040153  RH  040%=      5-min Rain = 0
KQU1 201421Z 22016KT 31/15 A3009 RMK A01 T03050154  RH  040%=      5-min Rain = 0
KQU1 201422Z 22017KT 31/15 A3009 RMK A01 T03050153  RH  040%=      5-min Rain = 0
KQU1 201423Z 22015KT 31/15 A3009 RMK A01 T03050154  RH  040%=      5-min Rain = 0
KQU1 201424Z 22013G20KT 31/16 A3009 RMK A01 T03070155  RH  040%=      5-min Rain = 0
KQU1 201425Z 23020KT 31/15 A3009 RMK A01 T03080153  RH  039%=      5-min Rain = 0
KQU1 201426Z 22019KT 31/15 A3009 RMK A01 T03070153  RH  039%=      5-min Rain = 0
KQU1 201427Z 22017KT 31/15 A3009 RMK A01 T03070154  RH  040%=      5-min Rain = 0
KQU1 201428Z 22018KT 31/15 A3009 RMK A01 T03070154  RH  040%=      5-min Rain = 0
KQU1 201429Z 22018KT 31/15 A3009 RMK A01 T03070153  RH  039%=      5-min Rain = 0
KQU1 201430Z 22017KT 31/15 A3009 RMK A01 T03070154  RH  040%=      5-min Rain = 0
KQU1 201431Z 22017KT 31/15 A3009 RMK A01 T03070154  RH  039%=      5-min Rain = 0
KQU1 201432Z 22016KT 31/15 A3009 RMK A01 T03080154  RH  039%=      5-min Rain = 0
KQU1 201433Z 22015KT 31/15 A3009 RMK A01 T03080154  RH  039%=      5-min Rain = 0
KQU1 201434Z 22014KT 31/16 A3009 RMK A01 T03090155  RH  039%=      5-min Rain = 0
KQU1 201435Z 22014KT 31/15 A3009 RMK A01 T03110154  RH  039%=      5-min Rain = 0
KQU1 201436Z 22014KT 31/15 A3009 RMK A01 T03110154  RH  039%=      5-min Rain = 0
KQU1 201437Z 24017KT 31/16 A3009 RMK A01 T03120155  RH  039%=      5-min Rain = 0
KQU1 201438Z 24017G23KT 31/15 A3009 RMK A01 T03100153  RH  039%=      5-min Rain = 0
KQU1 201439Z 24020KT 31/15 A3009 RMK A01 T03090154  RH  039%=      5-min Rain = 0
KQU1 201440Z 23018KT 31/16 A3009 RMK A01 T03090155  RH  039%=      5-min Rain = 0
KQU1 201441Z 24020KT 31/15 A3009 RMK A01 T03090154  RH  039%=      5-min Rain = 0
KQU1 201442Z 23015G20KT 31/16 A3009 RMK A01 T03090155  RH  039%=      5-min Rain = 0
KQU1 201443Z 23018KT 31/16 A3009 RMK A01 T03100155  RH  039%=      5-min Rain = 0
KQU1 201444Z 22018KT 31/16 A3009 RMK A01 T03100155  RH  039%=      5-min Rain = 0
KQU1 201445Z 23018KT 31/15 A3009 RMK A01 T03100154  RH  039%=      5-min Rain = 0
KQU1 201446Z 22020KT 31/15 A3009 RMK A01 T03100154  RH  039%=      5-min Rain = 0
KQU1 201447Z 23019KT 31/16 A3009 RMK A01 T03100155  RH  039%=      5-min Rain = 0
KQU1 201448Z 23017KT 31/15 A3009 RMK A01 T03100154  RH  039%=      5-min Rain = 0
KQU1 201449Z 22016KT 31/16 A3009 RMK A01 T03100156  RH  039%=      5-min Rain = 0
KQU1 201450Z 24012KT 31/16 A3009 RMK A01 T03130157  RH  039%=      5-min Rain = 0
KQU1 201451Z 24016KT 32/16 A3009 RMK A01 T03150155  RH  038%=      5-min Rain = 0
KQU1 201452Z 24017KT 32/15 A3009 RMK A01 T03150154  RH  038%=      5-min Rain = 0
KQU1 201453Z 24016KT 31/16 A3009 RMK A01 T03140155  RH  038%=      5-min Rain = 0
KQU1 201454Z 24017KT 31/16 A3009 RMK A01 T03140155  RH  038%=      5-min Rain = 0
KQU1 201455Z 25019G25KT 31/16 A3009 RMK A01 T03140155  RH  038%=      5-min Rain = 0
KQU1 201456Z 24016KT 32/16 A3009 RMK A01 T03150155  RH  038%=      5-min Rain = 0
KQU1 201457Z 24019KT 31/15 A3009 RMK A01 T03140153  RH  038%=      5-min Rain = 0
KQU1 201458Z 24015G21KT 31/16 A3009 RMK A01 T03140155  RH  038%=      5-min Rain = 0
KQU1 201459Z 24020KT 32/15 A3009 RMK A01 T03150154  RH  038%=      5-min Rain = 0
KQU1 201500Z 24020KT 31/15 A3009 RMK A01 T03140153  RH  038%=      5-min Rain = 0
KQU1 201501Z 24020KT 31/15 A3009 RMK A01 T03140154  RH  038%=      5-min Rain = 0
KQU1 201502Z 24017KT 31/15 A3009 RMK A01 T03130154  RH  038%=      5-min Rain = 0
KQU1 201503Z 23019KT 31/15 A3009 RMK A01 T03140154  RH  038%=      5-min Rain = 0
KQU1 201504Z 22017KT 31/15 A3009 RMK A01 T03140154  RH  038%=      5-min Rain = 0
KQU1 201505Z 23013KT 32/16 A3009 RMK A01 T03170156  RH  038%=      5-min Rain = 0
KQU1 201506Z 23016KT 32/15 A3009 RMK A01 T03180154  RH  037%=      5-min Rain = 0
KQU1 201507Z 23017KT 32/15 A3009 RMK A01 T03180153  RH  037%=      5-min Rain = 0
KQU1 201508Z 22016KT 32/15 A3009 RMK A01 T03170154  RH  037%=      5-min Rain = 0
KQU1 201509Z 23016KT 32/16 A3009 RMK A01 T03180155  RH  037%=      5-min Rain = 0
KQU1 201510Z 22016KT 32/15 A3009 RMK A01 T03180154  RH  037%=      5-min Rain = 0
KQU1 201511Z 22014KT 32/16 A3009 RMK A01 T03190155  RH  037%=      5-min Rain = 0
KQU1 201512Z 23014KT 32/15 A3009 RMK A01 T03190154  RH  037%=      5-min Rain = 0
KQU1 201513Z 24015G21KT 32/16 A3009 RMK A01 T03200155  RH  037%=      5-min Rain = 0
KQU1 201514Z 25019KT 32/15 A3009 RMK A01 T03190152  RH  037%=      5-min Rain = 0
KQU1 201515Z 25015KT 32/16 A3009 RMK A01 T03180155  RH  037%=      5-min Rain = 0
KQU1 201516Z 25016KT 32/15 A3009 RMK A01 T03190154  RH  037%=      5-min Rain = 0
KQU1 201517Z 25017KT 32/15 A3009 RMK A01 T03200154  RH  037%=      5-min Rain = 0
KQU1 201518Z 24016KT 32/15 A3009 RMK A01 T03200153  RH  037%=      5-min Rain = 0
KQU1 201519Z 24015KT 32/15 A3009 RMK A01 T03190153  RH  037%=      5-min Rain = 0
KQU1 201520Z 24013G18KT 32/16 A3009 RMK A01 T03200155  RH  037%=      5-min Rain = 0
KQU1 201521Z 23013KT 32/15 A3009 RMK A01 T03200153  RH  037%=      5-min Rain = 0
KQU1 201522Z 24015KT 32/15 A3009 RMK A01 T03200153  RH  037%=      5-min Rain = 0
KQU1 201523Z 25015G20KT 32/15 A3009 RMK A01 T03210154  RH  037%=      5-min Rain = 0
KQU1 201524Z 25017KT 32/15 A3009 RMK A01 T03200152  RH  036%=      5-min Rain = 0
KQU1 201525Z 26016G21KT 32/15 A3009 RMK A01 T03210153  RH  036%=      5-min Rain = 0
KQU1 201526Z 23015KT 32/15 A3009 RMK A01 T03220153  RH  036%=      5-min Rain = 0
KQU1 201527Z 23018KT 32/15 A3009 RMK A01 T03220151  RH  036%=      5-min Rain = 0
KQU1 201528Z 23014KT 32/15 A3009 RMK A01 T03220153  RH  036%=      5-min Rain = 0
KQU1 201529Z 24014KT 32/15 A301 RMK A01 T03240153  RH  036%=      5-min Rain = 0
KQU1 201530Z 23011KT 33/15 A301 RMK A01 T03250154  RH  036%=      5-min Rain = 0
KQU1 201531Z 23015KT 33/15 A301 RMK A01 T03260152  RH  035%=      5-min Rain = 0
KQU1 201532Z 22014KT 33/15 A3009 RMK A01 T03250152  RH  035%=      5-min Rain = 0
KQU1 201533Z 22016KT 33/15 A3009 RMK A01 T03250152  RH  035%=      5-min Rain = 0
KQU1 201534Z 23017KT 32/15 A3009 RMK A01 T03240151  RH  035%=      5-min Rain = 0
KQU1 201535Z 22013KT 32/15 A3009 RMK A01 T03240153  RH  036%=      5-min Rain = 0
KQU1 201536Z 22012KT 33/15 A3009 RMK A01 T03250152  RH  035%=      5-min Rain = 0
KQU1 201537Z 24015KT 33/15 A301 RMK A01 T03260152  RH  035%=      5-min Rain = 0
KQU1 201538Z 23015KT 33/15 A301 RMK A01 T03260151  RH  035%=      5-min Rain = 0
KQU1 201539Z 23012G17KT 33/15 A301 RMK A01 T03270153  RH  035%=      5-min Rain = 0
KQU1 201540Z 22014KT 33/15 A301 RMK A01 T03290150  RH  034%=      5-min Rain = 0
KQU1 201541Z 23015KT 33/15 A301 RMK A01 T03280150  RH  034%=      5-min Rain = 0
KQU1 201542Z 23015KT 33/15 A301 RMK A01 T03280151  RH  035%=      5-min Rain = 0
KQU1 201543Z 23015KT 33/15 A301 RMK A01 T03290150  RH  034%=      5-min Rain = 0
KQU1 201544Z 23014KT 33/15 A301 RMK A01 T03280149  RH  034%=      5-min Rain = 0
KQU1 201545Z 24015KT 33/15 A301 RMK A01 T03280150  RH  034%=      5-min Rain = 0
KQU1 201546Z 24013KT 33/15 A301 RMK A01 T03280151  RH  034%=      5-min Rain = 0
KQU1 201547Z 25013KT 33/15 A301 RMK A01 T03280151  RH  034%=      5-min Rain = 0
KQU1 201548Z 25013KT 33/15 A301 RMK A01 T03280151  RH  034%=      5-min Rain = 0
KQU1 201549Z 24016KT 33/15 A301 RMK A01 T03280150  RH  034%=      5-min Rain = 0
KQU1 201550Z 24015KT 33/15 A301 RMK A01 T03280150  RH  034%=      5-min Rain = 0
KQU1 201551Z 25015KT 33/15 A301 RMK A01 T03290151  RH  034%=      5-min Rain = 0
KQU1 201552Z 24012KT 33/15 A301 RMK A01 T03310150  RH  034%=      5-min Rain = 0
KQU1 201553Z 24012KT 33/15 A301 RMK A01 T03310150  RH  034%=      5-min Rain = 0
KQU1 201554Z 24015KT 33/15 A301 RMK A01 T03310150  RH  034%=      5-min Rain = 0
KQU1 201555Z 25015KT 33/15 A301 RMK A01 T03300150  RH  034%=      5-min Rain = 0
KQU1 201556Z 24011KT 33/15 A301 RMK A01 T03290152  RH  034%=      5-min Rain = 0
KQU1 201557Z 24013KT 33/15 A301 RMK A01 T03300152  RH  034%=      5-min Rain = 0
KQU1 201558Z 23016KT 33/15 A301 RMK A01 T03310152  RH  034%=      5-min Rain = 0
KQU1 201559Z 24014KT 33/15 A301 RMK A01 T03310149  RH  034%=      5-min Rain = 0
KQU1 201600Z 25010KT 33/15 A301 RMK A01 T03310153  RH  034%=      5-min Rain = 0
KQU1 201601Z 26012G18KT 33/15 A301 RMK A01 T03340151  RH  033%=      5-min Rain = 0
KQU1 201602Z 24016KT 33/15 A301 RMK A01 T03340149  RH  033%=      5-min Rain = 0
KQU1 201603Z 24014KT 33/15 A301 RMK A01 T03330148  RH  033%=      5-min Rain = 0
KQU1 201604Z 24012KT 33/15 A301 RMK A01 T03330150  RH  033%=      5-min Rain = 0
KQU1 201605Z 24009KT 34/15 A301 RMK A01 T03370153  RH  033%=      5-min Rain = 0
KQU1 201606Z 25014KT 34/15 A301 RMK A01 T03380150  RH  032%=      5-min Rain = 0
KQU1 201607Z 25012KT 34/15 A301 RMK A01 T03360150  RH  033%=      5-min Rain = 0
KQU1 201608Z 25014KT 34/15 A301 RMK A01 T03360150  RH  033%=      5-min Rain = 0
KQU1 201609Z 22009KT 34/15 A301 RMK A01 T03390151  RH  032%=      5-min Rain = 0
KQU1 201610Z 21009KT 34/15 A301 RMK A01 T03400150  RH  032%=      5-min Rain = 0
KQU1 201611Z 24008KT 34/15 A301 RMK A01 T03420151  RH  032%=      5-min Rain = 0
KQU1 201612Z 24013KT 34/15 A301 RMK A01 T03430149  RH  031%=      5-min Rain = 0
KQU1 201613Z 24012KT 34/15 A301 RMK A01 T03420149  RH  031%=      5-min Rain = 0
KQU1 201614Z 23016KT 34/15 A301 RMK A01 T03420148  RH  031%=      5-min Rain = 0
KQU1 201615Z 24013KT 34/15 A301 RMK A01 T03410148  RH  031%=      5-min Rain = 0
KQU1 201616Z 24013KT 34/15 A301 RMK A01 T03410148  RH  032%=      5-min Rain = 0
KQU1 201617Z 23012KT 34/15 A301 RMK A01 T03390147  RH  032%=      5-min Rain = 0
KQU1 201618Z 23012G17KT 34/15 A301 RMK A01 T03390149  RH  032%=      5-min Rain = 0
KQU1 201619Z 23011KT 34/15 A301 RMK A01 T03370147  RH  032%=      5-min Rain = 0
KQU1 201620Z 23011KT 34/15 A301 RMK A01 T03370149  RH  032%=      5-min Rain = 0
KQU1 201621Z 24013KT 34/15 A301 RMK A01 T03360148  RH  032%=      5-min Rain = 0
KQU1 201622Z 25013KT 34/15 A301 RMK A01 T03370149  RH  032%=      5-min Rain = 0
KQU1 201623Z 25008KT 34/15 A301 RMK A01 T03380149  RH  032%=      5-min Rain = 0
KQU1 201624Z 26009KT 34/15 A301 RMK A01 T03390149  RH  032%=      5-min Rain = 0
KQU1 201625Z 24010KT 34/15 A301 RMK A01 T03390149  RH  032%=      5-min Rain = 0
KQU1 201626Z 22013KT 34/15 A301 RMK A01 T03410148  RH  031%=      5-min Rain = 0
KQU1 201627Z 25013KT 34/15 A301 RMK A01 T03410149  RH  032%=      5-min Rain = 0
KQU1 201628Z 26011KT 34/15 A301 RMK A01 T03400148  RH  032%=      5-min Rain = 0
KQU1 201629Z 25009KT 34/15 A301 RMK A01 T03400148  RH  032%=      5-min Rain = 0
KQU1 201630Z 24013KT 34/15 A301 RMK A01 T03400149  RH  032%=      5-min Rain = 0
KQU1 201631Z 24010KT 34/15 A301 RMK A01 T03400148  RH  032%=      5-min Rain = 0
KQU1 201632Z 25009KT 34/15 A301 RMK A01 T03400148  RH  032%=      5-min Rain = 0
KQU1 201633Z 24008KT 34/15 A301 RMK A01 T03400146  RH  031%=      5-min Rain = 0
KQU1 201634Z 23013KT 34/15 A301 RMK A01 T03420148  RH  031%=      5-min Rain = 0
KQU1 201635Z 22014KT 34/15 A301 RMK A01 T03430148  RH  031%=      5-min Rain = 0
KQU1 201636Z 22013KT 34/15 A301 RMK A01 T03430146  RH  031%=      5-min Rain = 0
KQU1 201637Z 22012KT 34/15 A301 RMK A01 T03430146  RH  031%=      5-min Rain = 0
KQU1 201638Z 23009KT 34/14 A301 RMK A01 T03430144  RH  030%=      5-min Rain = 0
KQU1 201639Z 22005KT 34/15 A301 RMK A01 T03430146  RH  031%=      5-min Rain = 0
KQU1 201640Z 24009KT 35/15 A301 RMK A01 T03460148  RH  031%=      5-min Rain = 0
KQU1 201641Z 26013KT 35/15 A301 RMK A01 T03460147  RH  030%=      5-min Rain = 0
KQU1 201642Z 24012KT 35/15 A301 RMK A01 T03450146  RH  030%=      5-min Rain = 0
KQU1 201643Z 23009KT 34/15 A301 RMK A01 T03430147  RH  031%=      5-min Rain = 0
KQU1 201644Z 25011KT 34/15 A301 RMK A01 T03420147  RH  031%=      5-min Rain = 0
KQU1 201645Z 25013KT 34/15 A301 RMK A01 T03430148  RH  031%=      5-min Rain = 0
KQU1 201646Z 25010KT 34/15 A301 RMK A01 T03440148  RH  031%=      5-min Rain = 0
KQU1 201647Z 23011KT 35/15 A301 RMK A01 T03450148  RH  031%=      5-min Rain = 0
KQU1 201648Z 23008KT 35/15 A301 RMK A01 T03450148  RH  031%=      5-min Rain = 0
KQU1 201649Z 27010KT 35/15 A301 RMK A01 T03460149  RH  031%=      5-min Rain = 0
KQU1 201650Z 25010KT 35/15 A301 RMK A01 T03480150  RH  031%=      5-min Rain = 0
KQU1 201651Z 28007G14KT 35/15 A301 RMK A01 T03500148  RH  030%=      5-min Rain = 0
KQU1 201652Z 26008KT 35/15 A301 RMK A01 T03500150  RH  030%=      5-min Rain = 0
KQU1 201653Z 23011KT 35/15 A301 RMK A01 T03510147  RH  030%=      5-min Rain = 0
KQU1 201654Z 24011KT 35/15 A301 RMK A01 T03510148  RH  030%=      5-min Rain = 0
KQU1 201655Z 25010KT 35/15 A301 RMK A01 T03500148  RH  030%=      5-min Rain = 0
KQU1 201656Z 26011G16KT 35/15 A301 RMK A01 T03490148  RH  030%=      5-min Rain = 0
KQU1 201657Z 27011KT 35/15 A301 RMK A01 T03500149  RH  030%=      5-min Rain = 0
KQU1 201658Z 26012KT 35/15 A301 RMK A01 T03490149  RH  030%=      5-min Rain = 0
KQU1 201659Z 25014KT 35/15 A301 RMK A01 T03490149  RH  030%=      5-min Rain = 0
KQU1 201700Z 25011KT 35/15 A301 RMK A01 T03470148  RH  030%=      5-min Rain = 0
KQU1 201701Z 25006KT 35/15 A301 RMK A01 T03460149  RH  031%=      5-min Rain = 0
KQU1 201702Z 27008KT 35/15 A3009 RMK A01 T03450148  RH  031%=      5-min Rain = 0
KQU1 201703Z 27006KT 34/15 A3009 RMK A01 T03440148  RH  031%=      5-min Rain = 0
KQU1 201704Z 29006KT 35/15 A3009 RMK A01 T03460148  RH  031%=      5-min Rain = 0
KQU1 201705Z 28005KT 35/15 A3009 RMK A01 T03460147  RH  030%=      5-min Rain = 0
KQU1 201706Z 23010KT 35/15 A3009 RMK A01 T03480150  RH  031%=      5-min Rain = 0
KQU1 201707Z 24012KT 35/15 A3009 RMK A01 T03490148  RH  030%=      5-min Rain = 0
KQU1 201708Z 25006G11KT 35/15 A301 RMK A01 T03470148  RH  030%=      5-min Rain = 0
KQU1 201709Z 22007G13KT 35/15 A3009 RMK A01 T03470150  RH  031%=      5-min Rain = 0
KQU1 201710Z 22012KT 35/15 A3009 RMK A01 T03490148  RH  030%=      5-min Rain = 0
KQU1 201711Z 23008KT 35/15 A301 RMK A01 T03480148  RH  030%=      5-min Rain = 0
KQU1 201712Z 24010G18KT 35/15 A301 RMK A01 T03490150  RH  030%=      5-min Rain = 0
KQU1 201713Z 26011G16KT 35/15 A301 RMK A01 T03520150  RH  030%=      5-min Rain = 0
KQU1 201714Z 25010KT 35/15 A301 RMK A01 T03530148  RH  029%=      5-min Rain = 0
KQU1 201715Z 23008KT 35/15 A301 RMK A01 T03520146  RH  029%=      5-min Rain = 0
KQU1 201716Z 22005KT 35/15 A301 RMK A01 T03500145  RH  029%=      5-min Rain = 0
KQU1 201717Z 26009KT 35/15 A3009 RMK A01 T03490146  RH  030%=      5-min Rain = 0
KQU1 201718Z 25009KT 35/15 A3009 RMK A01 T03470145  RH  030%=      5-min Rain = 0
KQU1 201719Z 25007KT 35/15 A3009 RMK A01 T03480147  RH  030%=      5-min Rain = 0
KQU1 201720Z 27008KT 35/15 A3009 RMK A01 T03500148  RH  030%=      5-min Rain = 0
KQU1 201721Z 18008KT 35/14 A3009 RMK A01 T03530143  RH  029%=      5-min Rain = 0
KQU1 201722Z 19005KT 35/14 A3009 RMK A01 T03520138  RH  028%=      5-min Rain = 0
KQU1 201723Z 16005KT 35/14 A3009 RMK A01 T03530143  RH  028%=      5-min Rain = 0
KQU1 201724Z 18003KT 36/14 A3009 RMK A01 T03550143  RH  028%=      5-min Rain = 0
KQU1 201725Z 19006KT 36/14 A3009 RMK A01 T03560143  RH  028%=      5-min Rain = 0
KQU1 201726Z 24010KT 36/14 A3009 RMK A01 T03550143  RH  028%=      5-min Rain = 0
KQU1 201727Z 25006KT 35/15 A3009 RMK A01 T03530145  RH  029%=      5-min Rain = 0
KQU1 201728Z 22009KT 35/14 A3009 RMK A01 T03540144  RH  029%=      5-min Rain = 0
KQU1 201729Z 22011KT 35/14 A3009 RMK A01 T03540142  RH  028%=      5-min Rain = 0
KQU1 201730Z 24013KT 35/14 A3009 RMK A01 T03530142  RH  028%=      5-min Rain = 0
KQU1 201731Z 24011KT 35/14 A3009 RMK A01 T03530142  RH  028%=      5-min Rain = 0
KQU1 201732Z 25008KT 36/14 A3009 RMK A01 T03560138  RH  027%=      5-min Rain = 0
KQU1 201733Z 26006KT 36/14 A3009 RMK A01 T03570135  RH  026%=      5-min Rain = 0
KQU1 201734Z 27006KT 36/14 A3009 RMK A01 T03560137  RH  027%=      5-min Rain = 0
KQU1 201735Z 25010KT 36/14 A3009 RMK A01 T03550143  RH  028%=      5-min Rain = 0
KQU1 201736Z 24010G17KT 35/14 A3009 RMK A01 T03540143  RH  028%=      5-min Rain = 0
KQU1 201737Z 19009KT 35/14 A3009 RMK A01 T03540138  RH  028%=      5-min Rain = 0
KQU1 201738Z 18006KT 36/14 A3009 RMK A01 T03550138  RH  027%=      5-min Rain = 0
KQU1 201739Z 17010KT 36/14 A3009 RMK A01 T03570142  RH  028%=      5-min Rain = 0
KQU1 201740Z 18009KT 36/14 A3009 RMK A01 T03600140  RH  027%=      5-min Rain = 0
KQU1 201741Z 20006KT 36/14 A3009 RMK A01 T03600140  RH  027%=      5-min Rain = 0
KQU1 201742Z 22007KT 36/14 A3009 RMK A01 T03600138  RH  027%=      5-min Rain = 0
KQU1 201743Z 22006KT 36/14 A3009 RMK A01 T03600140  RH  027%=      5-min Rain = 0
KQU1 201744Z 24011KT 36/14 A3009 RMK A01 T03620142  RH  027%=      5-min Rain = 0
KQU1 201745Z 25010KT 36/14 A3009 RMK A01 T03590140  RH  027%=      5-min Rain = 0
KQU1 201746Z 25006KT 36/14 A3009 RMK A01 T03570140  RH  027%=      5-min Rain = 0
KQU1 201747Z 25004KT 35/14 A3009 RMK A01 T03540140  RH  028%=      5-min Rain = 0
KQU1 201748Z 19008KT 35/14 A3009 RMK A01 T03540140  RH  028%=      5-min Rain = 0
KQU1 201749Z 16004KT 35/14 A3009 RMK A01 T03520141  RH  028%=      5-min Rain = 0
KQU1 201750Z 19004KT 35/14 A3009 RMK A01 T03520143  RH  029%=      5-min Rain = 0
KQU1 201751Z 19006KT 35/14 A3009 RMK A01 T03540143  RH  028%=      5-min Rain = 0
KQU1 201752Z 19007KT 36/14 A3009 RMK A01 T03550143  RH  028%=      5-min Rain = 0
KQU1 201753Z 22006KT 35/14 A3009 RMK A01 T03540141  RH  028%=      5-min Rain = 0
KQU1 201754Z 20010KT 36/14 A3009 RMK A01 T03550139  RH  028%=      5-min Rain = 0
KQU1 201755Z 21011KT 36/14 A3009 RMK A01 T03570136  RH  026%=      5-min Rain = 0
KQU1 201756Z 21010KT 36/14 A3009 RMK A01 T03580136  RH  026%=      5-min Rain = 0
KQU1 201757Z 21011KT 36/14 A3009 RMK A01 T03610137  RH  026%=      5-min Rain = 0
KQU1 201758Z 21009KT 36/13 A3009 RMK A01 T03640132  RH  025%=      5-min Rain = 0
KQU1 201759Z 18005KT 37/13 A3009 RMK A01 T03650130  RH  024%=      5-min Rain = 0
KQU1 201800Z 18004KT 37/13 A3009 RMK A01 T03650127  RH  024%=      5-min Rain = 0
KQU1 201801Z 19003KT 36/13 A3009 RMK A01 T03640129  RH  025%=      5-min Rain = 0
KQU1 201802Z 17003KT 36/13 A3009 RMK A01 T03630131  RH  025%=      5-min Rain = 0
KQU1 201803Z 19001KT 36/13 A3009 RMK A01 T03630132  RH  025%=      5-min Rain = 0
KQU1 201804Z 19002KT 36/13 A3009 RMK A01 T03630131  RH  025%=      5-min Rain = 0
KQU1 201805Z 15003KT 36/14 A3009 RMK A01 T03630135  RH  026%=      5-min Rain = 0
KQU1 201806Z 19010KT 36/14 A3009 RMK A01 T03630136  RH  026%=      5-min Rain = 0
KQU1 201807Z 17010KT 36/14 A3009 RMK A01 T03610136  RH  026%=      5-min Rain = 0
KQU1 201808Z 15009KT 36/14 A3009 RMK A01 T03620138  RH  026%=      5-min Rain = 0
KQU1 201809Z 20012G19KT 36/13 A3009 RMK A01 T03630134  RH  025%=      5-min Rain = 0
KQU1 201810Z 18011KT 36/13 A3009 RMK A01 T03630132  RH  025%=      5-min Rain = 0
KQU1 201811Z 20013KT 37/13 A3009 RMK A01 T03650129  RH  024%=      5-min Rain = 0
KQU1 201812Z 22011KT 36/13 A3009 RMK A01 T03640131  RH  025%=      5-min Rain = 0
KQU1 201813Z 20013KT 37/13 A3009 RMK A01 T03650132  RH  025%=      5-min Rain = 0
KQU1 201814Z 19010KT 37/13 A3009 RMK A01 T03660130  RH  024%=      5-min Rain = 0
KQU1 201815Z 17006KT 36/13 A3009 RMK A01 T03630128  RH  025%=      5-min Rain = 0
KQU1 201816Z 21003KT 36/13 A3009 RMK A01 T03600129  RH  025%=      5-min Rain = 0
KQU1 201817Z 15002KT 36/14 A3008 RMK A01 T03610135  RH  026%=      5-min Rain = 0
KQU1 201818Z 16004KT 36/13 A3008 RMK A01 T03630134  RH  025%=      5-min Rain = 0
KQU1 201819Z 16005KT 37/14 A3008 RMK A01 T03650137  RH  026%=      5-min Rain = 0
KQU1 201820Z 15008KT 37/14 A3008 RMK A01 T03670136  RH  025%=      5-min Rain = 0
KQU1 201821Z 15008KT 37/14 A3008 RMK A01 T03660135  RH  025%=      5-min Rain = 0
KQU1 201822Z 15009KT 37/14 A3008 RMK A01 T03650139  RH  026%=      5-min Rain = 0
KQU1 201823Z 16009KT 37/14 A3008 RMK A01 T03670137  RH  025%=      5-min Rain = 0
KQU1 201824Z 17007KT 37/14 A3008 RMK A01 T03670136  RH  025%=      5-min Rain = 0
KQU1 201825Z 17005KT 37/14 A3008 RMK A01 T03670137  RH  025%=      5-min Rain = 0
KQU1 201826Z 22010KT 37/13 A3008 RMK A01 T03670132  RH  025%=      5-min Rain = 0
KQU1 201827Z 22008KT 37/13 A3008 RMK A01 T03650130  RH  024%=      5-min Rain = 0
KQU1 201828Z 24008KT 36/13 A3008 RMK A01 T03640131  RH  025%=      5-min Rain = 0
KQU1 201829Z 22007KT 36/13 A3008 RMK A01 T03640131  RH  025%=      5-min Rain = 0
KQU1 201830Z 21011KT 37/13 A3008 RMK A01 T03660128  RH  024%=      5-min Rain = 0
KQU1 201831Z 22009KT 37/13 A3008 RMK A01 T03650128  RH  024%=      5-min Rain = 0
KQU1 201832Z 23009KT 37/13 A3007 RMK A01 T03650129  RH  024%=      5-min Rain = 0
KQU1 201833Z 22007KT 37/13 A3008 RMK A01 T03680131  RH  024%=      5-min Rain = 0
KQU1 201834Z 19008G16KT 37/13 A3008 RMK A01 T03670130  RH  024%=      5-min Rain = 0
KQU1 201835Z 18013KT 37/13 A3008 RMK A01 T03670132  RH  025%=      5-min Rain = 0
KQU1 201836Z 18007G12KT 37/13 A3008 RMK A01 T03680130  RH  024%=      5-min Rain = 0
KQU1 201837Z 19006KT 37/13 A3007 RMK A01 T03670128  RH  024%=      5-min Rain = 0
KQU1 201838Z 18007KT 37/13 A3007 RMK A01 T03650132  RH  025%=      5-min Rain = 0
KQU1 201839Z 16010G15KT 37/13 A3007 RMK A01 T03670131  RH  024%=      5-min Rain = 0
KQU1 201840Z 16013KT 37/13 A3007 RMK A01 T03680129  RH  024%=      5-min Rain = 0
KQU1 201841Z 17011KT 37/13 A3007 RMK A01 T03690125  RH  023%=      5-min Rain = 0
KQU1 201842Z 17009KT 37/12 A3007 RMK A01 T03690120  RH  022%=      5-min Rain = 0
KQU1 201843Z 15009KT 37/13 A3007 RMK A01 T03690126  RH  023%=      5-min Rain = 0
KQU1 201844Z 13008KT 37/12 A3007 RMK A01 T03700123  RH  023%=      5-min Rain = 0
KQU1 201845Z 12006KT 37/13 A3007 RMK A01 T03700125  RH  023%=      5-min Rain = 0
KQU1 201846Z 16008KT 37/13 A3007 RMK A01 T03710127  RH  023%=      5-min Rain = 0
KQU1 201847Z 17004KT 37/13 A3007 RMK A01 T03700125  RH  023%=      5-min Rain = 0
KQU1 201848Z 15006KT 37/13 A3007 RMK A01 T03690128  RH  024%=      5-min Rain = 0
KQU1 201849Z 14007KT 37/13 A3007 RMK A01 T03700132  RH  024%=      5-min Rain = 0
KQU1 201850Z 16009KT 37/13 A3007 RMK A01 T03710133  RH  024%=      5-min Rain = 0
KQU1 201851Z 13010G15KT 37/14 A3007 RMK A01 T03720136  RH  024%=      5-min Rain = 0
KQU1 201852Z 15012KT 37/14 A3007 RMK A01 T03740137  RH  024%=      5-min Rain = 0
KQU1 201853Z 16010KT 37/14 A3007 RMK A01 T03740135  RH  024%=      5-min Rain = 0
KQU1 201854Z 16010KT 37/14 A3007 RMK A01 T03740137  RH  024%=      5-min Rain = 0
KQU1 201855Z 16011KT 37/13 A3007 RMK A01 T03740133  RH  024%=      5-min Rain = 0
KQU1 201856Z 16008KT 37/13 A3007 RMK A01 T03730131  RH  024%=      5-min Rain = 0
KQU1 201857Z 19011G17KT 37/13 A3007 RMK A01 T03730129  RH  023%=      5-min Rain = 0
KQU1 201858Z 19010KT 37/13 A3007 RMK A01 T03720125  RH  023%=      5-min Rain = 0
KQU1 201859Z 18011KT 37/13 A3007 RMK A01 T03720133  RH  024%=      5-min Rain = 0
KQU1 201900Z 19009KT 38/13 A3007 RMK A01 T03770133  RH  023%=      5-min Rain = 0
KQU1 201901Z 20009KT 38/13 A3007 RMK A01 T03760128  RH  023%=      5-min Rain = 0
KQU1 201902Z 19011KT 37/13 A3007 RMK A01 T03730127  RH  023%=      5-min Rain = 0
KQU1 201903Z 19008KT 37/12 A3007 RMK A01 T03740124  RH  022%=      5-min Rain = 0
KQU1 201904Z 18007KT 37/13 A3007 RMK A01 T03730125  RH  023%=      5-min Rain = 0
KQU1 201905Z 19005KT 37/13 A3007 RMK A01 T03740128  RH  023%=      5-min Rain = 0
KQU1 201906Z 18004KT 37/13 A3007 RMK A01 T03730126  RH  023%=      5-min Rain = 0
KQU1 201907Z 22008KT 37/13 A3007 RMK A01 T03730129  RH  023%=      5-min Rain = 0
KQU1 201908Z 23009KT 37/13 A3007 RMK A01 T03720129  RH  023%=      5-min Rain = 0
KQU1 201909Z 24010KT 37/13 A3007 RMK A01 T03720128  RH  023%=      5-min Rain = 0
KQU1 201910Z 25008G13KT 37/13 A3007 RMK A01 T03710127  RH  023%=      5-min Rain = 0
KQU1 201911Z 28005KT 37/13 A3007 RMK A01 T03700128  RH  024%=      5-min Rain = 0
KQU1 201912Z 26006KT 37/13 A3007 RMK A01 T03710129  RH  024%=      5-min Rain = 0
KQU1 201913Z 24007KT 37/13 A3007 RMK A01 T03720126  RH  023%=      5-min Rain = 0
KQU1 201914Z 23003KT 37/13 A3007 RMK A01 T03710125  RH  023%=      5-min Rain = 0
KQU1 201915Z 24004KT 37/13 A3007 RMK A01 T03720126  RH  023%=      5-min Rain = 0
KQU1 201916Z 23002KT 37/13 A3007 RMK A01 T03720126  RH  023%=      5-min Rain = 0
KQU1 201917Z 23002KT 37/13 A3007 RMK A01 T03720126  RH  023%=      5-min Rain = 0
KQU1 201918Z 12005G11KT 37/13 A3007 RMK A01 T03740129  RH  023%=      5-min Rain = 0
KQU1 201919Z 16008KT 38/13 A3007 RMK A01 T03750131  RH  023%=      5-min Rain = 0
KQU1 201920Z 15007KT 38/13 A3007 RMK A01 T03750128  RH  023%=      5-min Rain = 0
KQU1 201921Z 17010G17KT 38/13 A3007 RMK A01 T03760130  RH  023%=      5-min Rain = 0
KQU1 201922Z 17009KT 38/13 A3007 RMK A01 T03790131  RH  023%=      5-min Rain = 0
KQU1 201923Z 16011KT 38/13 A3007 RMK A01 T03810130  RH  022%=      5-min Rain = 0
KQU1 201924Z 16011KT 38/13 A3007 RMK A01 T03800129  RH  022%=      5-min Rain = 0
KQU1 201925Z 18009KT 38/13 A3007 RMK A01 T03780127  RH  022%=      5-min Rain = 0
KQU1 201926Z 20008KT 38/11 A3006 RMK A01 T03770110  RH  020%=      5-min Rain = 0
KQU1 201927Z 21014KT 38/11 A3006 RMK A01 T03760108  RH  020%=      5-min Rain = 0
KQU1 201928Z 20012G17KT 38/11 A3006 RMK A01 T03750109  RH  020%=      5-min Rain = 0
KQU1 201929Z 20011KT 38/11 A3006 RMK A01 T03770113  RH  021%=      5-min Rain = 0
KQU1 201930Z 19010KT 38/11 A3006 RMK A01 T03760113  RH  021%=      5-min Rain = 0
KQU1 201931Z 16012KT 38/12 A3006 RMK A01 T03770123  RH  022%=      5-min Rain = 0
KQU1 201932Z 16012KT 38/12 A3006 RMK A01 T03770123  RH  022%=      5-min Rain = 0
KQU1 201933Z 17010G15KT 38/12 A3006 RMK A01 T03750120  RH  022%=      5-min Rain = 0
KQU1 201934Z 17011KT 37/12 A3006 RMK A01 T03740122  RH  022%=      5-min Rain = 0
KQU1 201935Z 18010KT 38/12 A3006 RMK A01 T03750121  RH  022%=      5-min Rain = 0
KQU1 201936Z 18009KT 38/12 A3006 RMK A01 T03780120  RH  021%=      5-min Rain = 0
KQU1 201937Z 17010KT 38/12 A3006 RMK A01 T03770123  RH  022%=      5-min Rain = 0
KQU1 201938Z 16008KT 38/13 A3006 RMK A01 T03760128  RH  023%=      5-min Rain = 0
KQU1 201939Z 14005KT 38/13 A3006 RMK A01 T03770129  RH  023%=      5-min Rain = 0
KQU1 201940Z 16003KT 38/13 A3006 RMK A01 T03770129  RH  023%=      5-min Rain = 0
KQU1 201941Z 15002KT 38/13 A3006 RMK A01 T03770127  RH  022%=      5-min Rain = 0
KQU1 201942Z 23004KT 38/13 A3006 RMK A01 T03750125  RH  022%=      5-min Rain = 0
KQU1 201943Z 19008KT 38/12 A3006 RMK A01 T03760121  RH  022%=      5-min Rain = 0
KQU1 201944Z 16006KT 38/12 A3006 RMK A01 T03750121  RH  022%=      5-min Rain = 0
KQU1 201945Z 15010KT 38/12 A3006 RMK A01 T03750122  RH  022%=      5-min Rain = 0
KQU1 201946Z 15011KT 38/12 A3006 RMK A01 T03750118  RH  021%=      5-min Rain = 0
KQU1 201947Z 15009KT 37/12 A3006 RMK A01 T03740119  RH  022%=      5-min Rain = 0
KQU1 201948Z 14007KT 37/12 A3006 RMK A01 T03740118  RH  021%=      5-min Rain = 0
KQU1 201949Z 13008KT 38/12 A3006 RMK A01 T03750118  RH  021%=      5-min Rain = 0
KQU1 201950Z 14007KT 38/12 A3006 RMK A01 T03760120  RH  022%=      5-min Rain = 0
KQU1 201951Z 15005KT 38/12 A3005 RMK A01 T03760120  RH  022%=      5-min Rain = 0
KQU1 201952Z 17006KT 37/12 A3005 RMK A01 T03740124  RH  022%=      5-min Rain = 0
KQU1 201953Z 15007KT 37/13 A3005 RMK A01 T03730125  RH  023%=      5-min Rain = 0
KQU1 201954Z 16009KT 37/13 A3005 RMK A01 T03730126  RH  023%=      5-min Rain = 0
KQU1 201955Z 12005KT 37/13 A3005 RMK A01 T03730129  RH  023%=      5-min Rain = 0
KQU1 201956Z 10002KT 37/13 A3005 RMK A01 T03720126  RH  023%=      5-min Rain = 0
KQU1 201957Z 20001KT 37/13 A3005 RMK A01 T03720127  RH  023%=      5-min Rain = 0
KQU1 201958Z 15002KT 37/13 A3005 RMK A01 T03730128  RH  023%=      5-min Rain = 0
KQU1 201959Z 21002KT 38/13 A3005 RMK A01 T03750127  RH  023%=      5-min Rain = 0
KQU1 202000Z 21006KT 38/13 A3005 RMK A01 T03760127  RH  023%=      5-min Rain = 0
KQU1 202001Z 19015KT 38/13 A3005 RMK A01 T03780125  RH  022%=      5-min Rain = 0
KQU1 202002Z 20014KT 38/12 A3005 RMK A01 T03770124  RH  022%=      5-min Rain = 0
KQU1 202003Z 23010KT 38/12 A3005 RMK A01 T03760124  RH  022%=      5-min Rain = 0
KQU1 202004Z 23008KT 37/13 A3005 RMK A01 T03740125  RH  023%=      5-min Rain = 0
KQU1 202005Z 24007KT 37/13 A3005 RMK A01 T03730125  RH  023%=      5-min Rain = 0
KQU1 202006Z 20010KT 37/13 A3005 RMK A01 T03740126  RH  023%=      5-min Rain = 0
KQU1 202007Z 18007KT 38/13 A3005 RMK A01 T03760128  RH  023%=      5-min Rain = 0
KQU1 202008Z 17010KT 38/13 A3005 RMK A01 T03770125  RH  022%=      5-min Rain = 0
KQU1 202009Z 16007KT 38/13 A3005 RMK A01 T03750127  RH  023%=      5-min Rain = 0
KQU1 202010Z 18008KT 38/13 A3005 RMK A01 T03760126  RH  023%=      5-min Rain = 0
KQU1 202011Z 16010KT 38/12 A3005 RMK A01 T03780120  RH  021%=      5-min Rain = 0
KQU1 202012Z 16010KT 38/12 A3005 RMK A01 T03770119  RH  021%=      5-min Rain = 0
KQU1 202013Z 16010KT 38/12 A3005 RMK A01 T03770121  RH  022%=      5-min Rain = 0
KQU1 202014Z 16009KT 38/12 A3004 RMK A01 T03770120  RH  021%=      5-min Rain = 0
KQU1 202015Z 16014KT 38/12 A3004 RMK A01 T03780121  RH  022%=      5-min Rain = 0
KQU1 202016Z 16013KT 38/12 A3004 RMK A01 T03790121  RH  021%=      5-min Rain = 0
KQU1 202017Z 16012KT 38/12 A3004 RMK A01 T03780117  RH  021%=      5-min Rain = 0
KQU1 202018Z 14011KT 38/12 A3004 RMK A01 T03770122  RH  022%=      5-min Rain = 0
KQU1 202019Z 14009KT 38/12 A3004 RMK A01 T03790119  RH  021%=      5-min Rain = 0
KQU1 202020Z 16008KT 38/12 A3004 RMK A01 T03790116  RH  021%=      5-min Rain = 0
KQU1 202021Z 15007KT 38/12 A3004 RMK A01 T03770115  RH  021%=      5-min Rain = 0
KQU1 202022Z 13010KT 38/12 A3004 RMK A01 T03780121  RH  022%=      5-min Rain = 0
KQU1 202023Z 15015KT 38/12 A3004 RMK A01 T03810121  RH  021%=      5-min Rain = 0
KQU1 202024Z 15010KT 38/12 A3004 RMK A01 T03810115  RH  020%=      5-min Rain = 0
KQU1 202025Z 15007KT 38/12 A3004 RMK A01 T03800119  RH  021%=      5-min Rain = 0
KQU1 202026Z 12007KT 38/12 A3004 RMK A01 T03810120  RH  021%=      5-min Rain = 0
KQU1 202027Z 10008KT 38/12 A3004 RMK A01 T03820119  RH  021%=      5-min Rain = 0
KQU1 202028Z 12008KT 38/12 A3003 RMK A01 T03820118  RH  021%=      5-min Rain = 0
KQU1 202029Z 15006KT 38/12 A3004 RMK A01 T03810121  RH  021%=      5-min Rain = 0
KQU1 202030Z 16012KT 38/12 A3004 RMK A01 T03830122  RH  021%=      5-min Rain = 0
KQU1 202031Z 16008G15KT 39/12 A3004 RMK A01 T03850121  RH  021%=      5-min Rain = 0
KQU1 202032Z 17007G12KT 39/12 A3003 RMK A01 T03860119  RH  020%=      5-min Rain = 0
KQU1 202033Z 15007G12KT 39/12 A3003 RMK A01 T03850120  RH  021%=      5-min Rain = 0
KQU1 202034Z 12011KT 39/12 A3003 RMK A01 T03850121  RH  021%=      5-min Rain = 0
KQU1 202035Z 13009KT 38/12 A3003 RMK A01 T03840120  RH  021%=      5-min Rain = 0
KQU1 202036Z 12007KT 38/12 A3003 RMK A01 T03830121  RH  021%=      5-min Rain = 0
KQU1 202037Z 11009KT 38/12 A3003 RMK A01 T03820120  RH  021%=      5-min Rain = 0
KQU1 202038Z 13008KT 38/12 A3003 RMK A01 T03810121  RH  021%=      5-min Rain = 0
KQU1 202039Z 14006KT 38/12 A3003 RMK A01 T03820121  RH  021%=      5-min Rain = 0
KQU1 202040Z 20008KT 38/12 A3003 RMK A01 T03820116  RH  020%=      5-min Rain = 0
KQU1 202041Z 19011KT 38/11 A3003 RMK A01 T03840112  RH  020%=      5-min Rain = 0
KQU1 202042Z 17014KT 39/11 A3003 RMK A01 T03850114  RH  020%=      5-min Rain = 0
KQU1 202043Z 16014KT 39/11 A3003 RMK A01 T03860114  RH  020%=      5-min Rain = 0
KQU1 202044Z 16012KT 39/12 A3003 RMK A01 T03850116  RH  020%=      5-min Rain = 0
KQU1 202045Z 17013KT 39/11 A3003 RMK A01 T03850114  RH  020%=      5-min Rain = 0
KQU1 202046Z 17011KT 39/12 A3003 RMK A01 T03850116  RH  020%=      5-min Rain = 0
KQU1 202047Z 15012KT 39/12 A3003 RMK A01 T03860115  RH  020%=      5-min Rain = 0
KQU1 202048Z 17011KT 38/11 A3003 RMK A01 T03840112  RH  020%=      5-min Rain = 0
KQU1 202049Z 17010KT 38/11 A3003 RMK A01 T03820113  RH  020%=      5-min Rain = 0
KQU1 202050Z 16007KT 38/11 A3003 RMK A01 T03800111  RH  020%=      5-min Rain = 0
KQU1 202051Z 15006KT 38/11 A3002 RMK A01 T03790114  RH  020%=      5-min Rain = 0
KQU1 202052Z 17008KT 38/12 A3002 RMK A01 T03790116  RH  021%=      5-min Rain = 0
KQU1 202053Z 20010KT 38/11 A3002 RMK A01 T03800109  RH  020%=      5-min Rain = 0
KQU1 202054Z 18007KT 38/11 A3002 RMK A01 T03800109  RH  020%=      5-min Rain = 0
KQU1 202055Z 17008KT 38/11 A3002 RMK A01 T03810108  RH  019%=      5-min Rain = 0
KQU1 202056Z 21007G12KT 38/11 A3002 RMK A01 T03810105  RH  019%=      5-min Rain = 0
KQU1 202057Z 24006KT 38/11 A3002 RMK A01 T03780105  RH  019%=      5-min Rain = 0
KQU1 202058Z 25005KT 38/11 A3002 RMK A01 T03770108  RH  020%=      5-min Rain = 0
KQU1 202059Z 22006KT 38/11 A3002 RMK A01 T03770110  RH  020%=      5-min Rain = 0
KQU1 202100Z 23004KT 38/11 A3002 RMK A01 T03770112  RH  020%=      5-min Rain = 0
KQU1 202101Z 19004KT 38/12 A3002 RMK A01 T03800117  RH  021%=      5-min Rain = 0
KQU1 202102Z 17008KT 38/12 A3002 RMK A01 T03840116  RH  020%=      5-min Rain = 0
KQU1 202103Z 18006KT 39/11 A3002 RMK A01 T03850112  RH  020%=      5-min Rain = 0
KQU1 202104Z 15014KT 39/12 A3002 RMK A01 T03850115  RH  020%=      5-min Rain = 0
KQU1 202105Z 14013KT 39/12 A3002 RMK A01 T03860115  RH  020%=      5-min Rain = 0
KQU1 202106Z 13013KT 39/11 A3002 RMK A01 T03860113  RH  020%=      5-min Rain = 0
KQU1 202107Z 15011KT 39/11 A3002 RMK A01 T03860113  RH  020%=      5-min Rain = 0
KQU1 202108Z 14013KT 39/12 A3002 RMK A01 T03860116  RH  020%=      5-min Rain = 0
KQU1 202109Z 14013KT 39/12 A3002 RMK A01 T03870115  RH  020%=      5-min Rain = 0
KQU1 202110Z 13012KT 39/12 A3002 RMK A01 T03880115  RH  020%=      5-min Rain = 0
KQU1 202111Z 12010KT 39/11 A3001 RMK A01 T03890113  RH  019%=      5-min Rain = 0
KQU1 202112Z 12010KT 39/11 A3001 RMK A01 T03890114  RH  019%=      5-min Rain = 0
KQU1 202113Z 15010KT 39/12 A3001 RMK A01 T03890116  RH  020%=      5-min Rain = 0
KQU1 202114Z 14014KT 39/11 A3001 RMK A01 T03900112  RH  019%=      5-min Rain = 0
KQU1 202115Z 15014KT 39/11 A3001 RMK A01 T03890111  RH  019%=      5-min Rain = 0
KQU1 202116Z 14011G16KT 39/11 A3001 RMK A01 T03890114  RH  019%=      5-min Rain = 0
KQU1 202117Z 13011KT 39/11 A3001 RMK A01 T03900113  RH  019%=      5-min Rain = 0
KQU1 202118Z 16013KT 39/11 A3001 RMK A01 T03910113  RH  019%=      5-min Rain = 0
KQU1 202119Z 16011KT 39/11 A3001 RMK A01 T03890109  RH  019%=      5-min Rain = 0
KQU1 202120Z 14009KT 39/11 A3001 RMK A01 T03850107  RH  019%=      5-min Rain = 0
KQU1 202121Z 13010KT 38/11 A3001 RMK A01 T03810111  RH  020%=      5-min Rain = 0
KQU1 202122Z 11007KT 38/11 A3001 RMK A01 T03780108  RH  020%=      5-min Rain = 0
KQU1 202123Z 10005G12KT 37/11 A3001 RMK A01 T03740108  RH  020%=      5-min Rain = 0
KQU1 202124Z 14010KT 37/11 A3001 RMK A01 T03720111  RH  021%=      5-min Rain = 0
KQU1 202125Z 14009KT 37/11 A3001 RMK A01 T03710110  RH  021%=      5-min Rain = 0
KQU1 202126Z 14009KT 37/11 A3001 RMK A01 T03710112  RH  021%=      5-min Rain = 0
KQU1 202127Z 16011KT 37/11 A3001 RMK A01 T03710109  RH  021%=      5-min Rain = 0
KQU1 202128Z 18008KT 37/10 A3001 RMK A01 T03730104  RH  020%=      5-min Rain = 0
KQU1 202129Z 18012KT 37/10 A3001 RMK A01 T03730103  RH  020%=      5-min Rain = 0
KQU1 202130Z 17010KT 37/10 A3001 RMK A01 T03720102  RH  020%=      5-min Rain = 0
KQU1 202131Z 15008KT 37/11 A3001 RMK A01 T03720105  RH  020%=      5-min Rain = 0
KQU1 202132Z 14008KT 37/12 A3001 RMK A01 T03740119  RH  022%=      5-min Rain = 0
KQU1 202133Z 15011G16KT 38/12 A3001 RMK A01 T03770121  RH  022%=      5-min Rain = 0
KQU1 202134Z 15013KT 38/12 A3001 RMK A01 T03790118  RH  021%=      5-min Rain = 0
KQU1 202135Z 15010KT 38/12 A3001 RMK A01 T03800118  RH  021%=      5-min Rain = 0
KQU1 202136Z 14009KT 38/12 A3001 RMK A01 T03810123  RH  021%=      5-min Rain = 0
KQU1 202137Z 13007KT 38/13 A3001 RMK A01 T03820125  RH  022%=      5-min Rain = 0
KQU1 202138Z 13010KT 38/12 A3001 RMK A01 T03830121  RH  021%=      5-min Rain = 0
KQU1 202139Z 13010G15KT 38/12 A3001 RMK A01 T03840124  RH  021%=      5-min Rain = 0
KQU1 202140Z 13015KT 39/13 A3001 RMK A01 T03850125  RH  021%=      5-min Rain = 0
KQU1 202141Z 13010KT 39/13 A3001 RMK A01 T03860128  RH  022%=      5-min Rain = 0
KQU1 202142Z 14010G15KT 39/13 A3001 RMK A01 T03860128  RH  022%=      5-min Rain = 0
KQU1 202143Z 14012KT 39/13 A3001 RMK A01 T03860128  RH  022%=      5-min Rain = 0
KQU1 202144Z 14017KT 39/13 A3001 RMK A01 T03860130  RH  022%=      5-min Rain = 0
KQU1 202145Z 14016KT 39/13 A3001 RMK A01 T03850127  RH  021%=      5-min Rain = 0
KQU1 202146Z 12014KT 39/13 A3001 RMK A01 T03850129  RH  022%=      5-min Rain = 0
KQU1 202147Z 14017KT 39/13 A3001 RMK A01 T03850128  RH  022%=      5-min Rain = 0
KQU1 202148Z 14018KT 39/13 A3001 RMK A01 T03850125  RH  021%=      5-min Rain = 0
KQU1 202149Z 14018KT 38/12 A3001 RMK A01 T03830124  RH  021%=      5-min Rain = 0
KQU1 202150Z 14016KT 38/13 A3001 RMK A01 T03820126  RH  022%=      5-min Rain = 0
KQU1 202151Z 14014KT 38/13 A3001 RMK A01 T03830127  RH  022%=      5-min Rain = 0
KQU1 202152Z 15014KT 38/13 A3001 RMK A01 T03840128  RH  022%=      5-min Rain = 0
KQU1 202153Z 15015KT 38/13 A3001 RMK A01 T03840127  RH  022%=      5-min Rain = 0
KQU1 202154Z 14011KT 39/13 A3001 RMK A01 T03850127  RH  022%=      5-min Rain = 0
KQU1 202155Z 13013G18KT 39/13 A3001 RMK A01 T03850126  RH  021%=      5-min Rain = 0
KQU1 202156Z 13017G23KT 39/12 A3001 RMK A01 T03850124  RH  021%=      5-min Rain = 0
KQU1 202157Z 14016KT 38/12 A3001 RMK A01 T03830124  RH  021%=      5-min Rain = 0
KQU1 202158Z 14014KT 38/12 A3001 RMK A01 T03810124  RH  022%=      5-min Rain = 0
KQU1 202159Z 13019KT 38/13 A3001 RMK A01 T03810125  RH  022%=      5-min Rain = 0
KQU1 202200Z 13015KT 38/12 A3001 RMK A01 T03800123  RH  022%=      5-min Rain = 0
KQU1 202201Z 14019G27KT 38/12 A3001 RMK A01 T03790124  RH  022%=      5-min Rain = 0
KQU1 202202Z 15022KT 38/12 A3001 RMK A01 T03770124  RH  022%=      5-min Rain = 0
KQU1 202203Z 17023G28KT 37/12 A3001 RMK A01 T03720121  RH  022%=      5-min Rain = 0
KQU1 202204Z 16023KT 37/12 A3001 RMK A01 T03660121  RH  023%=      5-min Rain = 0
KQU1 202205Z 16018KT 36/12 A3001 RMK A01 T03630122  RH  024%=      5-min Rain = 0
KQU1 202206Z 17018KT 36/12 A3001 RMK A01 T03610121  RH  024%=      5-min Rain = 0
KQU1 202207Z 16018KT 36/12 A3001 RMK A01 T03590122  RH  024%=      5-min Rain = 0
KQU1 202208Z 16015KT 36/12 A3001 RMK A01 T03590123  RH  024%=      5-min Rain = 0
KQU1 202209Z 17016KT 36/12 A3001 RMK A01 T03590123  RH  024%=      5-min Rain = 0
KQU1 202210Z 18021KT 36/13 A3001 RMK A01 T03560125  RH  025%=      5-min Rain = 0
KQU1 202211Z 17018KT 35/13 A3001 RMK A01 T03510128  RH  026%=      5-min Rain = 0
KQU1 202212Z 18019G24KT 35/13 A3001 RMK A01 T03470129  RH  027%=      5-min Rain = 0
KQU1 202213Z 18021G27KT 35/13 A3001 RMK A01 T03450128  RH  027%=      5-min Rain = 0
KQU1 202214Z 19021G26KT 34/13 A3001 RMK A01 T03440127  RH  027%=      5-min Rain = 0
KQU1 202215Z 19022KT 34/12 A3001 RMK A01 T03430122  RH  026%=      5-min Rain = 0
KQU1 202216Z 19022KT 34/12 A3001 RMK A01 T03420120  RH  026%=      5-min Rain = 0
KQU1 202217Z 19023KT 34/12 A3001 RMK A01 T03420120  RH  026%=      5-min Rain = 0
KQU1 202218Z 19021KT 34/12 A3001 RMK A01 T03420121  RH  026%=      5-min Rain = 0
KQU1 202219Z 19019KT 34/12 A3001 RMK A01 T03420122  RH  026%=      5-min Rain = 0
KQU1 202220Z 19018KT 34/12 A3001 RMK A01 T03420122  RH  026%=      5-min Rain = 0
KQU1 202221Z 18021KT 34/12 A3001 RMK A01 T03420121  RH  026%=      5-min Rain = 0
KQU1 202222Z 19019G24KT 34/12 A3001 RMK A01 T03420121  RH  026%=      5-min Rain = 0
KQU1 202223Z 18017KT 34/12 A3001 RMK A01 T03430120  RH  026%=      5-min Rain = 0
KQU1 202224Z 19018KT 34/12 A3001 RMK A01 T03440119  RH  026%=      5-min Rain = 0
KQU1 202225Z 19015KT 35/12 A3001 RMK A01 T03450118  RH  025%=      5-min Rain = 0
KQU1 202226Z 19015KT 35/12 A3001 RMK A01 T03460115  RH  025%=      5-min Rain = 0
KQU1 202227Z 19013KT 35/12 A3001 RMK A01 T03480118  RH  025%=      5-min Rain = 0
KQU1 202228Z 19015KT 35/12 A3001 RMK A01 T03510120  RH  025%=      5-min Rain = 0
KQU1 202229Z 19017KT 35/12 A3001 RMK A01 T03530122  RH  025%=      5-min Rain = 0
KQU1 202230Z 18018KT 35/12 A3001 RMK A01 T03540123  RH  025%=      5-min Rain = 0
KQU1 202231Z 19020G25KT 35/12 A3001 RMK A01 T03540121  RH  025%=      5-min Rain = 0
KQU1 202232Z 19020KT 35/12 A3001 RMK A01 T03510123  RH  025%=      5-min Rain = 0
KQU1 202233Z 19018KT 35/13 A3001 RMK A01 T03450126  RH  027%=      5-min Rain = 0
KQU1 202234Z 19017KT 34/13 A3001 RMK A01 T03400129  RH  028%=      5-min Rain = 0
KQU1 202235Z 19018KT 34/13 A3001 RMK A01 T03360131  RH  029%=      5-min Rain = 0
KQU1 202236Z 19014KT 34/13 A3001 RMK A01 T03350133  RH  030%=      5-min Rain = 0
KQU1 202237Z 19012KT 34/14 A3001 RMK A01 T03350135  RH  030%=      5-min Rain = 0
KQU1 202238Z 19014KT 34/13 A3001 RMK A01 T03370130  RH  029%=      5-min Rain = 0
KQU1 202239Z 19016KT 34/12 A3001 RMK A01 T03380124  RH  027%=      5-min Rain = 0
KQU1 202240Z 19014KT 34/12 A3001 RMK A01 T03410122  RH  027%=      5-min Rain = 0
KQU1 202241Z 19013KT 34/12 A3001 RMK A01 T03440116  RH  025%=      5-min Rain = 0
KQU1 202242Z 19013KT 35/11 A3001 RMK A01 T03460113  RH  024%=      5-min Rain = 0
KQU1 202243Z 19015KT 35/11 A3001 RMK A01 T03490111  RH  024%=      5-min Rain = 0
KQU1 202244Z 19015KT 35/11 A3001 RMK A01 T03520106  RH  022%=      5-min Rain = 0
KQU1 202245Z 19016KT 35/10 A3001 RMK A01 T03540098  RH  021%=      5-min Rain = 0
KQU1 202246Z 19014KT 36/10 A3001 RMK A01 T03560099  RH  021%=      5-min Rain = 0
KQU1 202247Z 19015KT 36/10 A3001 RMK A01 T03580096  RH  020%=      5-min Rain = 0
KQU1 202248Z 19014KT 36/09 A3001 RMK A01 T03590093  RH  020%=      5-min Rain = 0
KQU1 202249Z 19013KT 36/09 A3001 RMK A01 T03600090  RH  019%=      5-min Rain = 0
KQU1 202250Z 19012KT 36/09 A3001 RMK A01 T03610092  RH  019%=      5-min Rain = 0
KQU1 202251Z 19015KT 36/09 A3001 RMK A01 T03630092  RH  019%=      5-min Rain = 0
KQU1 202252Z 19014KT 36/10 A30 RMK A01 T03640097  RH  020%=      5-min Rain = 0
KQU1 202253Z 18013KT 36/11 A3001 RMK A01 T03630107  RH  021%=      5-min Rain = 0
KQU1 202254Z 19015KT 36/11 A30 RMK A01 T03640112  RH  022%=      5-min Rain = 0
KQU1 202255Z 19014KT 36/11 A3001 RMK A01 T03630113  RH  022%=      5-min Rain = 0
KQU1 202256Z 19014KT 36/11 A3001 RMK A01 T03640108  RH  021%=      5-min Rain = 0
KQU1 202257Z 18014KT 37/11 A3001 RMK A01 T03650109  RH  021%=      5-min Rain = 0
KQU1 202258Z 18013KT 37/12 A3001 RMK A01 T03660117  RH  022%=      5-min Rain = 0
KQU1 202259Z 18011KT 37/12 A3001 RMK A01 T03650120  RH  023%=      5-min Rain = 0
KQU1 202300Z 19012KT 36/12 A30 RMK A01 T03640121  RH  023%=      5-min Rain = 0
KQU1 202301Z 17010KT 36/12 A30 RMK A01 T03630124  RH  024%=      5-min Rain = 0
KQU1 202302Z 18010KT 36/13 A30 RMK A01 T03620127  RH  024%=      5-min Rain = 0
KQU1 202303Z 17011KT 36/13 A30 RMK A01 T03620129  RH  025%=      5-min Rain = 0
KQU1 202304Z 19010KT 36/13 A30 RMK A01 T03620131  RH  025%=      5-min Rain = 0
KQU1 202305Z 19010KT 36/13 A30 RMK A01 T03640133  RH  025%=      5-min Rain = 0
KQU1 202306Z 18011KT 37/13 A30 RMK A01 T03660128  RH  024%=      5-min Rain = 0
KQU1 202307Z 17008KT 37/13 A30 RMK A01 T03680133  RH  025%=      5-min Rain = 0
KQU1 202308Z 16010KT 37/13 A3001 RMK A01 T03690129  RH  024%=      5-min Rain = 0
KQU1 202309Z 16010KT 37/13 A3001 RMK A01 T03670125  RH  023%=      5-min Rain = 0
KQU1 202310Z 16010KT 37/13 A3001 RMK A01 T03660129  RH  024%=      5-min Rain = 0
KQU1 202311Z 16010KT 37/12 A3001 RMK A01 T03660123  RH  023%=      5-min Rain = 0
KQU1 202312Z 16010KT 37/12 A3001 RMK A01 T03680120  RH  023%=      5-min Rain = 0
KQU1 202313Z 17012KT 37/12 A3001 RMK A01 T03680115  RH  022%=      5-min Rain = 0
KQU1 202314Z 17011KT 37/12 A3001 RMK A01 T03690115  RH  022%=      5-min Rain = 0
KQU1 202315Z 17012KT 37/11 A3001 RMK A01 T03700114  RH  021%=      5-min Rain = 0
KQU1 202316Z 18016KT 37/12 A3001 RMK A01 T03690116  RH  022%=      5-min Rain = 0
KQU1 202317Z 18019KT 37/13 A3001 RMK A01 T03660126  RH  024%=      5-min Rain = 0
KQU1 202318Z 18016KT 36/13 A3001 RMK A01 T03620127  RH  024%=      5-min Rain = 0
KQU1 202319Z 17013KT 36/13 A3001 RMK A01 T03600129  RH  025%=      5-min Rain = 0
KQU1 202320Z 17013KT 36/13 A3001 RMK A01 T03590133  RH  026%=      5-min Rain = 0
KQU1 202321Z 16012KT 36/13 A3001 RMK A01 T03590133  RH  026%=      5-min Rain = 0
KQU1 202322Z 18011KT 36/13 A3001 RMK A01 T03600125  RH  024%=      5-min Rain = 0
KQU1 202323Z 16010KT 36/12 A3001 RMK A01 T03620122  RH  024%=      5-min Rain = 0
KQU1 202324Z 16013KT 36/12 A3001 RMK A01 T03640123  RH  023%=      5-min Rain = 0
KQU1 202325Z 16013KT 36/13 A3001 RMK A01 T03640127  RH  024%=      5-min Rain = 0
KQU1 202326Z 17012KT 37/13 A3001 RMK A01 T03650131  RH  025%=      5-min Rain = 0
KQU1 202327Z 17011KT 37/14 A3001 RMK A01 T03660135  RH  025%=      5-min Rain = 0
KQU1 202328Z 17010KT 37/14 A3001 RMK A01 T03650135  RH  025%=      5-min Rain = 0
KQU1 202329Z 16013KT 37/13 A3001 RMK A01 T03660129  RH  024%=      5-min Rain = 0
KQU1 202330Z 16011KT 37/13 A3001 RMK A01 T03660128  RH  024%=      5-min Rain = 0
KQU1 202331Z 16011KT 37/13 A3001 RMK A01 T03650129  RH  024%=      5-min Rain = 0
KQU1 202332Z 15009KT 36/13 A3001 RMK A01 T03630126  RH  024%=      5-min Rain = 0
KQU1 202333Z 16008KT 36/13 A3001 RMK A01 T03630126  RH  024%=      5-min Rain = 0
KQU1 202334Z 16010KT 36/12 A3001 RMK A01 T03620121  RH  023%=      5-min Rain = 0
KQU1 202335Z 15010KT 36/12 A3001 RMK A01 T03620121  RH  024%=      5-min Rain = 0
KQU1 202336Z 15010KT 36/12 A3001 RMK A01 T03630122  RH  024%=      5-min Rain = 0
KQU1 202337Z 16010KT 36/12 A3001 RMK A01 T03640120  RH  023%=      5-min Rain = 0
KQU1 202338Z 15008KT 36/12 A3001 RMK A01 T03640122  RH  023%=      5-min Rain = 0
KQU1 202339Z 15011KT 37/12 A3001 RMK A01 T03650119  RH  023%=      5-min Rain = 0
KQU1 202340Z 15011KT 37/12 A3001 RMK A01 T03650120  RH  023%=      5-min Rain = 0
KQU1 202341Z 14012KT 37/12 A3001 RMK A01 T03670119  RH  023%=      5-min Rain = 0
KQU1 202342Z 14012KT 37/12 A3001 RMK A01 T03670119  RH  023%=      5-min Rain = 0
KQU1 202343Z 15010KT 37/12 A3001 RMK A01 T03670118  RH  022%=      5-min Rain = 0
KQU1 202344Z 16009KT 37/12 A3001 RMK A01 T03670118  RH  022%=      5-min Rain = 0
KQU1 202345Z 15009KT 37/12 A3001 RMK A01 T03670117  RH  022%=      5-min Rain = 0
KQU1 202346Z 15008KT 37/12 A3001 RMK A01 T03670118  RH  022%=      5-min Rain = 0
KQU1 202347Z 14007KT 37/12 A3001 RMK A01 T03670121  RH  023%=      5-min Rain = 0
KQU1 202348Z 13007KT 37/12 A3001 RMK A01 T03680123  RH  023%=      5-min Rain = 0
KQU1 202349Z 14008KT 37/12 A3001 RMK A01 T03690123  RH  023%=      5-min Rain = 0
KQU1 202350Z 14008KT 37/12 A3001 RMK A01 T03690121  RH  023%=      5-min Rain = 0
KQU1 202351Z 13008KT 37/12 A3001 RMK A01 T03690122  RH  023%=      5-min Rain = 0
KQU1 202352Z 14008KT 37/12 A3001 RMK A01 T03700121  RH  022%=      5-min Rain = 0
KQU1 202353Z 14008KT 37/12 A3001 RMK A01 T03690122  RH  023%=      5-min Rain = 0
KQU1 202354Z 14007KT 37/12 A3001 RMK A01 T03690122  RH  023%=      5-min Rain = 0
KQU1 202355Z 12009KT 37/12 A3001 RMK A01 T03680120  RH  023%=      5-min Rain = 0
KQU1 202356Z 13008KT 37/12 A3001 RMK A01 T03660119  RH  023%=      5-min Rain = 0
KQU1 202357Z 12006KT 36/12 A3001 RMK A01 T03640121  RH  023%=      5-min Rain = 0
KQU1 202358Z 11007KT 36/12 A3001 RMK A01 T03620122  RH  024%=      5-min Rain = 0
KQU1 202359Z 12009KT 36/12 A3001 RMK A01 T03610120  RH  023%=      5-min Rain = 0
KQU1 210000Z 14006KT 36/12 A3001 RMK A01 T03600121  RH  024%=      5-min Rain = 0
KQU1 210001Z 14006KT 36/12 A3001 RMK A01 T03590120  RH  024%=      5-min Rain = 0
KQU1 210002Z 13008KT 36/12 A3001 RMK A01 T03590121  RH  024%=      5-min Rain = 0
KQU1 210003Z 11009KT 36/12 A3001 RMK A01 T03580119  RH  024%=      5-min Rain = 0
KQU1 210004Z 11007KT 36/12 A3001 RMK A01 T03570119  RH  024%=      5-min Rain = 0
KQU1 210005Z 12007KT 36/12 A3001 RMK A01 T03570121  RH  024%=      5-min Rain = 0
KQU1 210006Z 14007KT 36/12 A3001 RMK A01 T03560121  RH  024%=      5-min Rain = 0
KQU1 210007Z 13008KT 36/12 A3001 RMK A01 T03560120  RH  024%=      5-min Rain = 0
KQU1 210008Z 13008KT 36/12 A3001 RMK A01 T03560120  RH  024%=      5-min Rain = 0
KQU1 210009Z 14009KT 36/12 A3001 RMK A01 T03560121  RH  024%=      5-min Rain = 0
KQU1 210010Z 13008KT 36/12 A3001 RMK A01 T03560120  RH  024%=      5-min Rain = 0
KQU1 210011Z 12007KT 36/12 A3001 RMK A01 T03560122  RH  024%=      5-min Rain = 0
KQU1 210012Z 13006KT 36/12 A3001 RMK A01 T03570122  RH  024%=      5-min Rain = 0
KQU1 210013Z 14007KT 36/12 A3001 RMK A01 T03570123  RH  024%=      5-min Rain = 0
KQU1 210014Z 14006KT 36/12 A3001 RMK A01 T03570123  RH  024%=      5-min Rain = 0
KQU1 210015Z 14008KT 36/12 A3001 RMK A01 T03570122  RH  024%=      5-min Rain = 0
KQU1 210016Z 14009KT 36/12 A3001 RMK A01 T03570121  RH  024%=      5-min Rain = 0
KQU1 210017Z 13007KT 36/12 A3001 RMK A01 T03560121  RH  024%=      5-min Rain = 0
KQU1 210018Z 13007KT 36/12 A3001 RMK A01 T03560120  RH  024%=      5-min Rain = 0
KQU1 210019Z 14007KT 36/12 A3001 RMK A01 T03560122  RH  024%=      5-min Rain = 0
KQU1 210020Z 14007KT 36/12 A3001 RMK A01 T03550124  RH  025%=      5-min Rain = 0
KQU1 210021Z 15008KT 36/12 A3001 RMK A01 T03550122  RH  025%=      5-min Rain = 0
KQU1 210022Z 15009KT 35/12 A3001 RMK A01 T03540122  RH  025%=      5-min Rain = 0
KQU1 210023Z 15009KT 35/12 A3001 RMK A01 T03530122  RH  025%=      5-min Rain = 0
KQU1 210024Z 14009KT 35/12 A3001 RMK A01 T03530122  RH  025%=      5-min Rain = 0
KQU1 210025Z 14009KT 35/12 A3001 RMK A01 T03520122  RH  025%=      5-min Rain = 0
KQU1 210026Z 14007KT 35/12 A3001 RMK A01 T03520123  RH  025%=      5-min Rain = 0
KQU1 210027Z 14007KT 35/12 A3001 RMK A01 T03520124  RH  025%=      5-min Rain = 0
KQU1 210028Z 15007KT 35/13 A3001 RMK A01 T03510125  RH  025%=      5-min Rain = 0
KQU1 210029Z 15006KT 35/13 A3001 RMK A01 T03510126  RH  026%=      5-min Rain = 0
KQU1 210030Z 14007KT 35/13 A3001 RMK A01 T03510126  RH  026%=      5-min Rain = 0
KQU1 210031Z 14009KT 35/13 A3001 RMK A01 T03510126  RH  026%=      5-min Rain = 0
KQU1 210032Z 14009KT 35/13 A3001 RMK A01 T03520125  RH  026%=      5-min Rain = 0
KQU1 210033Z 14010KT 35/12 A3001 RMK A01 T03520124  RH  025%=      5-min Rain = 0
KQU1 210034Z 15009KT 35/13 A3001 RMK A01 T03530125  RH  025%=      5-min Rain = 0
KQU1 210035Z 15012KT 35/13 A3001 RMK A01 T03540126  RH  025%=      5-min Rain = 0
KQU1 210036Z 16013KT 35/13 A3001 RMK A01 T03530126  RH  025%=      5-min Rain = 0
KQU1 210037Z 16013KT 35/13 A3001 RMK A01 T03530125  RH  025%=      5-min Rain = 0
KQU1 210038Z 17013KT 35/13 A3001 RMK A01 T03530125  RH  025%=      5-min Rain = 0
KQU1 210039Z 19015KT 35/13 A3001 RMK A01 T03520128  RH  026%=      5-min Rain = 0
KQU1 210040Z 19014KT 35/13 A3001 RMK A01 T03480131  RH  027%=      5-min Rain = 0
KQU1 210041Z 19016KT 34/13 A3001 RMK A01 T03440131  RH  028%=      5-min Rain = 0
KQU1 210042Z 19015KT 34/13 A3001 RMK A01 T03410132  RH  028%=      5-min Rain = 0
KQU1 210043Z 19013KT 34/13 A3001 RMK A01 T03400132  RH  029%=      5-min Rain = 0
KQU1 210044Z 19014G19KT 34/13 A3001 RMK A01 T03400130  RH  028%=      5-min Rain = 0
KQU1 210045Z 18017G23KT 34/13 A3001 RMK A01 T03410129  RH  028%=      5-min Rain = 0
KQU1 210046Z 18017G23KT 34/13 A3001 RMK A01 T03420127  RH  027%=      5-min Rain = 0
KQU1 210047Z 18016KT 34/12 A3001 RMK A01 T03420123  RH  027%=      5-min Rain = 0
KQU1 210048Z 19016KT 34/12 A3001 RMK A01 T03410123  RH  027%=      5-min Rain = 0
KQU1 210049Z 19013KT 34/13 A3001 RMK A01 T03400125  RH  027%=      5-min Rain = 0
KQU1 210050Z 19013G21KT 34/12 A3001 RMK A01 T03400124  RH  027%=      5-min Rain = 0
KQU1 210051Z 20016KT 34/12 A3001 RMK A01 T03390119  RH  026%=      5-min Rain = 0
KQU1 210052Z 20014KT 34/12 A3001 RMK A01 T03370120  RH  027%=      5-min Rain = 0
KQU1 210053Z 20014KT 34/12 A3001 RMK A01 T03360118  RH  027%=      5-min Rain = 0
KQU1 210054Z 20013KT 34/12 A3001 RMK A01 T03350116  RH  026%=      5-min Rain = 0
KQU1 210055Z 20012KT 34/12 A3001 RMK A01 T03350116  RH  026%=      5-min Rain = 0
KQU1 210056Z 20013KT 33/11 A3001 RMK A01 T03340114  RH  026%=      5-min Rain = 0
KQU1 210057Z 20012KT 33/11 A3001 RMK A01 T03330114  RH  026%=      5-min Rain = 0
KQU1 210058Z 20013KT 33/11 A3001 RMK A01 T03330112  RH  026%=      5-min Rain = 0
KQU1 210059Z 21013KT 33/11 A3001 RMK A01 T03320111  RH  026%=      5-min Rain = 0
KQU1 210100Z 22016KT 33/11 A3002 RMK A01 T03310112  RH  026%=      5-min Rain = 0
KQU1 210101Z 23015G20KT 33/12 A3002 RMK A01 T03300115  RH  027%=      5-min Rain = 0
KQU1 210102Z 22018G23KT 33/12 A3002 RMK A01 T03260120  RH  028%=      5-min Rain = 0
KQU1 210103Z 21018KT 32/12 A3002 RMK A01 T03200124  RH  030%=      5-min Rain = 0
KQU1 210104Z 22020KT 32/12 A3002 RMK A01 T03160124  RH  031%=      5-min Rain = 0
KQU1 210105Z 22016KT 31/13 A3002 RMK A01 T03130125  RH  032%=      5-min Rain = 0
KQU1 210106Z 22017KT 31/13 A3002 RMK A01 T03110126  RH  032%=      5-min Rain = 0
KQU1 210107Z 22016KT 31/13 A3002 RMK A01 T03100127  RH  033%=      5-min Rain = 0
KQU1 210108Z 22013KT 31/13 A3002 RMK A01 T03090127  RH  033%=      5-min Rain = 0
KQU1 210109Z 22014KT 31/13 A3002 RMK A01 T03090127  RH  033%=      5-min Rain = 0
KQU1 210110Z 22015KT 31/13 A3002 RMK A01 T03080126  RH  033%=      5-min Rain = 0
KQU1 210111Z 23016KT 31/13 A3002 RMK A01 T03080126  RH  033%=      5-min Rain = 0
KQU1 210112Z 23015KT 31/13 A3002 RMK A01 T03080126  RH  033%=      5-min Rain = 0
KQU1 210113Z 22013KT 31/13 A3002 RMK A01 T03070126  RH  033%=      5-min Rain = 0
KQU1 210114Z 23014KT 31/13 A3002 RMK A01 T03080125  RH  033%=      5-min Rain = 0
KQU1 210115Z 23014KT 31/13 A3002 RMK A01 T03080125  RH  033%=      5-min Rain = 0
KQU1 210116Z 23014KT 31/13 A3002 RMK A01 T03080125  RH  033%=      5-min Rain = 0
KQU1 210117Z 23013KT 31/12 A3003 RMK A01 T03080124  RH  032%=      5-min Rain = 0
KQU1 210118Z 23013KT 31/12 A3003 RMK A01 T03090123  RH  032%=      5-min Rain = 0
KQU1 210119Z 23013KT 31/12 A3002 RMK A01 T03090123  RH  032%=      5-min Rain = 0
KQU1 210120Z 22013KT 31/12 A3002 RMK A01 T03090122  RH  032%=      5-min Rain = 0
KQU1 210121Z 23012KT 31/12 A3002 RMK A01 T03090122  RH  032%=      5-min Rain = 0
KQU1 210122Z 22012KT 31/12 A3002 RMK A01 T03090120  RH  031%=      5-min Rain = 0
KQU1 210123Z 22011KT 31/12 A3002 RMK A01 T03090120  RH  031%=      5-min Rain = 0
KQU1 210124Z 22009KT 31/12 A3002 RMK A01 T03090120  RH  031%=      5-min Rain = 0
KQU1 210125Z 22010KT 31/12 A3003 RMK A01 T03100119  RH  031%=      5-min Rain = 0
KQU1 210126Z 22011KT 31/12 A3003 RMK A01 T03100119  RH  031%=      5-min Rain = 0
KQU1 210127Z 22010KT 31/12 A3003 RMK A01 T03100118  RH  031%=      5-min Rain = 0
KQU1 210128Z 22010KT 31/12 A3003 RMK A01 T03100116  RH  030%=      5-min Rain = 0
KQU1 210129Z 22010KT 31/11 A3003 RMK A01 T03110114  RH  030%=      5-min Rain = 0
KQU1 210130Z 22010KT 31/11 A3003 RMK A01 T03120114  RH  030%=      5-min Rain = 0
KQU1 210131Z 22010KT 31/11 A3003 RMK A01 T03120112  RH  029%=      5-min Rain = 0
KQU1 210132Z 22010KT 31/11 A3003 RMK A01 T03120112  RH  029%=      5-min Rain = 0
KQU1 210133Z 22012KT 31/11 A3003 RMK A01 T03120113  RH  029%=      5-min Rain = 0
KQU1 210134Z 23011KT 31/11 A3003 RMK A01 T03120114  RH  030%=      5-min Rain = 0
KQU1 210135Z 23011KT 31/12 A3003 RMK A01 T03110116  RH  030%=      5-min Rain = 0
KQU1 210136Z 24011KT 31/12 A3003 RMK A01 T03100117  RH  031%=      5-min Rain = 0
KQU1 210137Z 24009KT 31/12 A3003 RMK A01 T03090118  RH  031%=      5-min Rain = 0
KQU1 210138Z 24010KT 31/12 A3003 RMK A01 T03080118  RH  031%=      5-min Rain = 0
KQU1 210139Z 24009KT 31/12 A3003 RMK A01 T03070118  RH  031%=      5-min Rain = 0
KQU1 210140Z 24009KT 31/12 A3003 RMK A01 T03070117  RH  031%=      5-min Rain = 0
KQU1 210141Z 24009KT 31/12 A3003 RMK A01 T03070117  RH  031%=      5-min Rain = 0
KQU1 210142Z 24009KT 31/12 A3003 RMK A01 T03070116  RH  031%=      5-min Rain = 0
KQU1 210143Z 25009KT 31/12 A3003 RMK A01 T03070116  RH  031%=      5-min Rain = 0
KQU1 210144Z 25009KT 31/12 A3003 RMK A01 T03070116  RH  031%=      5-min Rain = 0
KQU1 210145Z 25008KT 31/12 A3003 RMK A01 T03070116  RH  031%=      5-min Rain = 0
KQU1 210146Z 25008KT 31/12 A3003 RMK A01 T03060117  RH  031%=      5-min Rain = 0
KQU1 210147Z 25008KT 31/12 A3003 RMK A01 T03060116  RH  031%=      5-min Rain = 0
KQU1 210148Z 25008KT 31/12 A3003 RMK A01 T03050116  RH  031%=      5-min Rain = 0
KQU1 210149Z 25008KT 31/12 A3003 RMK A01 T03050116  RH  031%=      5-min Rain = 0
KQU1 210150Z 24007KT 31/12 A3003 RMK A01 T03050116  RH  031%=      5-min Rain = 0
KQU1 210151Z 25007KT 31/12 A3003 RMK A01 T03050116  RH  031%=      5-min Rain = 0
KQU1 210152Z 24007KT 30/12 A3003 RMK A01 T03040115  RH  031%=      5-min Rain = 0
KQU1 210153Z 24007KT 30/12 A3003 RMK A01 T03040115  RH  031%=      5-min Rain = 0
KQU1 210154Z 24007KT 30/12 A3003 RMK A01 T03040115  RH  031%=      5-min Rain = 0
KQU1 210155Z 23006KT 30/11 A3003 RMK A01 T03030114  RH  031%=      5-min Rain = 0
KQU1 210156Z 22005KT 30/12 A3003 RMK A01 T03030115  RH  031%=      5-min Rain = 0
KQU1 210157Z 22005KT 30/12 A3003 RMK A01 T03030115  RH  031%=      5-min Rain = 0
KQU1 210158Z 23005KT 30/12 A3003 RMK A01 T03030115  RH  031%=      5-min Rain = 0
KQU1 210159Z 22005KT 30/12 A3003 RMK A01 T03020115  RH  031%=      5-min Rain = 0
KQU1 210200Z 21005KT 30/12 A3003 RMK A01 T03020115  RH  032%=      5-min Rain = 0
KQU1 210201Z 20004KT 30/12 A3003 RMK A01 T03010115  RH  032%=      5-min Rain = 0
KQU1 210202Z 20004KT 30/12 A3003 RMK A01 T03010115  RH  032%=      5-min Rain = 0
KQU1 210203Z 22004KT 30/12 A3003 RMK A01 T03000115  RH  032%=      5-min Rain = 0
KQU1 210204Z 21003KT 30/12 A3003 RMK A01 T03000115  RH  032%=      5-min Rain = 0
KQU1 210205Z 21003KT 30/12 A3003 RMK A01 T03000116  RH  032%=      5-min Rain = 0
KQU1 210206Z 23005KT 30/12 A3003 RMK A01 T02990116  RH  032%=      5-min Rain = 0
KQU1 210207Z 22005KT 30/12 A3003 RMK A01 T02980115  RH  032%=      5-min Rain = 0
KQU1 210208Z 21004KT 30/12 A3003 RMK A01 T02980116  RH  033%=      5-min Rain = 0
KQU1 210209Z 22005KT 30/12 A3003 RMK A01 T02970116  RH  033%=      5-min Rain = 0
KQU1 210210Z 23006KT 30/11 A3003 RMK A01 T02960114  RH  032%=      5-min Rain = 0
KQU1 210211Z 22005KT 30/11 A3003 RMK A01 T02960114  RH  032%=      5-min Rain = 0
KQU1 210212Z 22005KT 30/11 A3003 RMK A01 T02970113  RH  032%=      5-min Rain = 0
KQU1 210213Z 22005KT 30/11 A3003 RMK A01 T02970112  RH  032%=      5-min Rain = 0
KQU1 210214Z 22006KT 30/11 A3003 RMK A01 T02980112  RH  032%=      5-min Rain = 0
KQU1 210215Z 21006KT 30/11 A3003 RMK A01 T02980113  RH  032%=      5-min Rain = 0
KQU1 210216Z 22005KT 30/11 A3003 RMK A01 T02990113  RH  032%=      5-min Rain = 0
KQU1 210217Z 22005KT 30/11 A3003 RMK A01 T02990113  RH  032%=      5-min Rain = 0
KQU1 210218Z 22006KT 30/11 A3003 RMK A01 T03000114  RH  032%=      5-min Rain = 0
KQU1 210219Z 21006KT 30/11 A3003 RMK A01 T03000114  RH  032%=      5-min Rain = 0
KQU1 210220Z 21005KT 30/12 A3004 RMK A01 T03000115  RH  032%=      5-min Rain = 0
KQU1 210221Z 22005KT 30/12 A3004 RMK A01 T03010115  RH  032%=      5-min Rain = 0
KQU1 210222Z 21005KT 30/12 A3004 RMK A01 T03010116  RH  032%=      5-min Rain = 0
KQU1 210223Z 21004KT 30/12 A3004 RMK A01 T03020116  RH  032%=      5-min Rain = 0
KQU1 210224Z 21004KT 30/12 A3004 RMK A01 T03020117  RH  032%=      5-min Rain = 0
KQU1 210225Z 21004KT 30/12 A3004 RMK A01 T03020117  RH  032%=      5-min Rain = 0
KQU1 210226Z 21005KT 30/12 A3004 RMK A01 T03010118  RH  032%=      5-min Rain = 0
KQU1 210227Z 21006KT 30/12 A3004 RMK A01 T03010118  RH  032%=      5-min Rain = 0
KQU1 210228Z 20005KT 30/12 A3004 RMK A01 T03010118  RH  032%=      5-min Rain = 0
KQU1 210229Z 20006KT 30/12 A3004 RMK A01 T03020118  RH  032%=      5-min Rain = 0
KQU1 210230Z 20005KT 30/12 A3004 RMK A01 T03020119  RH  032%=      5-min Rain = 0
KQU1 210231Z 20006KT 30/12 A3004 RMK A01 T03020119  RH  032%=      5-min Rain = 0
KQU1 210232Z 20005KT 30/12 A3004 RMK A01 T03020120  RH  033%=      5-min Rain = 0
KQU1 210233Z 20005KT 30/12 A3004 RMK A01 T03020120  RH  033%=      5-min Rain = 0
KQU1 210234Z 20004KT 30/12 A3004 RMK A01 T03010121  RH  033%=      5-min Rain = 0
KQU1 210235Z 20005KT 30/12 A3004 RMK A01 T03000122  RH  033%=      5-min Rain = 0
KQU1 210236Z 20006KT 30/12 A3004 RMK A01 T02970121  RH  034%=      5-min Rain = 0
KQU1 210237Z 19006KT 30/12 A3004 RMK A01 T02970121  RH  034%=      5-min Rain = 0
KQU1 210238Z 20006KT 30/12 A3004 RMK A01 T02980121  RH  034%=      5-min Rain = 0
KQU1 210239Z 21007KT 30/12 A3004 RMK A01 T02980121  RH  034%=      5-min Rain = 0
KQU1 210240Z 20006KT 30/12 A3004 RMK A01 T02990121  RH  033%=      5-min Rain = 0
KQU1 210241Z 20005KT 30/12 A3004 RMK A01 T03000121  RH  033%=      5-min Rain = 0
KQU1 210242Z 20006KT 30/12 A3004 RMK A01 T03000122  RH  033%=      5-min Rain = 0
KQU1 210243Z 20006KT 30/12 A3004 RMK A01 T03000122  RH  033%=      5-min Rain = 0
KQU1 210244Z 20006KT 30/12 A3004 RMK A01 T03000122  RH  033%=      5-min Rain = 0
KQU1 210245Z 20006KT 30/12 A3004 RMK A01 T03000122  RH  033%=      5-min Rain = 0
KQU1 210246Z 20005KT 30/12 A3005 RMK A01 T03000122  RH  034%=      5-min Rain = 0
KQU1 210247Z 19006KT 30/12 A3005 RMK A01 T02990124  RH  034%=      5-min Rain = 0
KQU1 210248Z 19006KT 30/12 A3005 RMK A01 T02970124  RH  035%=      5-min Rain = 0
KQU1 210249Z 19005KT 30/13 A3005 RMK A01 T02960125  RH  035%=      5-min Rain = 0
KQU1 210250Z 19006KT 30/13 A3005 RMK A01 T02950125  RH  035%=      5-min Rain = 0
KQU1 210251Z 19006KT 30/13 A3005 RMK A01 T02950125  RH  035%=      5-min Rain = 0
KQU1 210252Z 19006KT 30/13 A3005 RMK A01 T02950126  RH  035%=      5-min Rain = 0
KQU1 210253Z 19006KT 29/13 A3005 RMK A01 T02940126  RH  035%=      5-min Rain = 0
KQU1 210254Z 19007KT 29/13 A3005 RMK A01 T02940126  RH  036%=      5-min Rain = 0
KQU1 210255Z 17007KT 29/13 A3005 RMK A01 T02930126  RH  036%=      5-min Rain = 0
KQU1 210256Z 18007KT 29/13 A3005 RMK A01 T02920127  RH  036%=      5-min Rain = 0
KQU1 210257Z 17006KT 29/13 A3005 RMK A01 T02920127  RH  036%=      5-min Rain = 0
KQU1 210258Z 17006KT 29/13 A3005 RMK A01 T02910128  RH  037%=      5-min Rain = 0
KQU1 210259Z 18007KT 29/13 A3005 RMK A01 T02900128  RH  037%=      5-min Rain = 0
KQU1 210300Z 18006KT 29/13 A3005 RMK A01 T02900128  RH  037%=      5-min Rain = 0
KQU1 210301Z 18006KT 29/13 A3005 RMK A01 T02900128  RH  037%=      5-min Rain = 0
KQU1 210302Z 18006KT 29/13 A3005 RMK A01 T02890129  RH  037%=      5-min Rain = 0
KQU1 210303Z 18006KT 29/13 A3005 RMK A01 T02880129  RH  037%=      5-min Rain = 0
KQU1 210304Z 19006KT 29/13 A3005 RMK A01 T02870129  RH  038%=      5-min Rain = 0
KQU1 210305Z 19007KT 29/13 A3005 RMK A01 T02860130  RH  038%=      5-min Rain = 0
KQU1 210306Z 18007KT 29/13 A3005 RMK A01 T02850131  RH  039%=      5-min Rain = 0
KQU1 210307Z 19007KT 29/13 A3005 RMK A01 T02850132  RH  039%=      5-min Rain = 0
KQU1 210308Z 19007KT 29/13 A3005 RMK A01 T02850133  RH  039%=      5-min Rain = 0
KQU1 210309Z 19007KT 29/13 A3005 RMK A01 T02860133  RH  039%=      5-min Rain = 0
KQU1 210310Z 18007KT 29/13 A3005 RMK A01 T02860134  RH  039%=      5-min Rain = 0
KQU1 210311Z 19007KT 29/13 A3005 RMK A01 T02870134  RH  039%=      5-min Rain = 0
KQU1 210312Z 18007KT 29/13 A3005 RMK A01 T02880134  RH  039%=      5-min Rain = 0
KQU1 210313Z 19007KT 29/14 A3005 RMK A01 T02880135  RH  039%=      5-min Rain = 0
KQU1 210314Z 18007KT 29/14 A3005 RMK A01 T02880135  RH  039%=      5-min Rain = 0
KQU1 210315Z 18007KT 29/14 A3005 RMK A01 T02880135  RH  039%=      5-min Rain = 0
KQU1 210316Z 18007KT 29/14 A3005 RMK A01 T02880136  RH  039%=      5-min Rain = 0
KQU1 210317Z 18007KT 29/14 A3005 RMK A01 T02880136  RH  039%=      5-min Rain = 0
KQU1 210318Z 18007KT 29/14 A3006 RMK A01 T02880137  RH  040%=      5-min Rain = 0
KQU1 210319Z 19007KT 29/14 A3006 RMK A01 T02870137  RH  040%=      5-min Rain = 0
KQU1 210320Z 19007KT 29/14 A3006 RMK A01 T02870138  RH  040%=      5-min Rain = 0
KQU1 210321Z 19007KT 29/14 A3006 RMK A01 T02860139  RH  040%=      5-min Rain = 0
KQU1 210322Z 19007KT 29/14 A3006 RMK A01 T02850139  RH  041%=      5-min Rain = 0
KQU1 210323Z 19007KT 29/14 A3006 RMK A01 T02850139  RH  041%=      5-min Rain = 0
KQU1 210324Z 19007KT 28/14 A3006 RMK A01 T02840140  RH  041%=      5-min Rain = 0
KQU1 210325Z 19007KT 28/14 A3006 RMK A01 T02840140  RH  041%=      5-min Rain = 0
KQU1 210326Z 19007KT 28/14 A3006 RMK A01 T02830140  RH  042%=      5-min Rain = 0
KQU1 210327Z 19008KT 28/14 A3006 RMK A01 T02830141  RH  042%=      5-min Rain = 0
KQU1 210328Z 20008KT 28/14 A3006 RMK A01 T02830141  RH  042%=      5-min Rain = 0
KQU1 210329Z 19008KT 28/14 A3006 RMK A01 T02830141  RH  042%=      5-min Rain = 0
KQU1 210330Z 20008KT 28/14 A3006 RMK A01 T02830142  RH  042%=      5-min Rain = 0
KQU1 210331Z 19008KT 28/14 A3006 RMK A01 T02830142  RH  042%=      5-min Rain = 0
KQU1 210332Z 19008KT 28/14 A3006 RMK A01 T02830142  RH  042%=      5-min Rain = 0
KQU1 210333Z 19008KT 28/14 A3006 RMK A01 T02830142  RH  042%=      5-min Rain = 0
KQU1 210334Z 20008KT 28/14 A3006 RMK A01 T02830143  RH  042%=      5-min Rain = 0
KQU1 210335Z 20008KT 28/14 A3006 RMK A01 T02830144  RH  043%=      5-min Rain = 0
KQU1 210336Z 20008KT 28/14 A3006 RMK A01 T02820144  RH  043%=      5-min Rain = 0
KQU1 210337Z 20008KT 28/15 A3006 RMK A01 T02820145  RH  043%=      5-min Rain = 0
KQU1 210338Z 20008KT 28/15 A3006 RMK A01 T02820145  RH  043%=      5-min Rain = 0
KQU1 210339Z 20008KT 28/15 A3006 RMK A01 T02810145  RH  044%=      5-min Rain = 0
KQU1 210340Z 20008KT 28/15 A3006 RMK A01 T02810146  RH  044%=      5-min Rain = 0
KQU1 210341Z 20008KT 28/15 A3006 RMK A01 T02800147  RH  044%=      5-min Rain = 0
KQU1 210342Z 20008KT 28/15 A3006 RMK A01 T02800148  RH  044%=      5-min Rain = 0
KQU1 210343Z 20008KT 28/15 A3006 RMK A01 T02800148  RH  044%=      5-min Rain = 0
KQU1 210344Z 20009KT 28/15 A3006 RMK A01 T02800148  RH  045%=      5-min Rain = 0
KQU1 210345Z 20008KT 28/15 A3006 RMK A01 T02800149  RH  045%=      5-min Rain = 0
KQU1 210346Z 20009KT 28/15 A3006 RMK A01 T02800149  RH  045%=      5-min Rain = 0
KQU1 210347Z 20008KT 28/15 A3006 RMK A01 T02800149  RH  045%=      5-min Rain = 0
KQU1 210348Z 20009KT 28/15 A3006 RMK A01 T02800149  RH  045%=      5-min Rain = 0
KQU1 210349Z 20009KT 28/15 A3006 RMK A01 T02800149  RH  045%=      5-min Rain = 0
KQU1 210350Z 20009KT 28/15 A3006 RMK A01 T02800150  RH  045%=      5-min Rain = 0
KQU1 210351Z 20009KT 28/15 A3006 RMK A01 T02790150  RH  045%=      5-min Rain = 0
KQU1 210352Z 20009KT 28/15 A3006 RMK A01 T02790151  RH  046%=      5-min Rain = 0
KQU1 210353Z 20009KT 28/15 A3006 RMK A01 T02790151  RH  046%=      5-min Rain = 0
KQU1 210354Z 20008KT 28/15 A3006 RMK A01 T02780151  RH  046%=      5-min Rain = 0
KQU1 210355Z 20008KT 28/15 A3006 RMK A01 T02780151  RH  046%=      5-min Rain = 0
KQU1 210356Z 20008KT 28/15 A3006 RMK A01 T02770152  RH  046%=      5-min Rain = 0
KQU1 210357Z 20008KT 28/15 A3006 RMK A01 T02770152  RH  046%=      5-min Rain = 0
KQU1 210358Z 20008KT 28/15 A3006 RMK A01 T02770152  RH  047%=      5-min Rain = 0
KQU1 210359Z 20008KT 28/15 A3006 RMK A01 T02770152  RH  047%=      5-min Rain = 0
KQU1 210400Z 20007KT 28/15 A3006 RMK A01 T02770152  RH  047%=      5-min Rain = 0
KQU1 210401Z 20008KT 28/15 A3006 RMK A01 T02760152  RH  047%=      5-min Rain = 0
KQU1 210402Z 20007KT 28/15 A3006 RMK A01 T02760153  RH  047%=      5-min Rain = 0
KQU1 210403Z 20007KT 28/15 A3006 RMK A01 T02760153  RH  047%=      5-min Rain = 0
KQU1 210404Z 20007KT 28/15 A3006 RMK A01 T02760153  RH  047%=      5-min Rain = 0
KQU1 210405Z 20008KT 28/15 A3007 RMK A01 T02750152  RH  047%=      5-min Rain = 0
KQU1 210406Z 21008KT 28/15 A3007 RMK A01 T02750152  RH  047%=      5-min Rain = 0
KQU1 210407Z 21008KT 28/15 A3007 RMK A01 T02750152  RH  047%=      5-min Rain = 0
KQU1 210408Z 21008KT 28/15 A3007 RMK A01 T02750152  RH  047%=      5-min Rain = 0
KQU1 210409Z 21009KT 28/15 A3007 RMK A01 T02750152  RH  047%=      5-min Rain = 0
KQU1 210410Z 21009KT 28/15 A3007 RMK A01 T02750151  RH  047%=      5-min Rain = 0
KQU1 210411Z 21008KT 28/15 A3007 RMK A01 T02760151  RH  046%=      5-min Rain = 0
KQU1 210412Z 20008KT 28/15 A3007 RMK A01 T02770151  RH  046%=      5-min Rain = 0
KQU1 210413Z 20009KT 28/15 A3007 RMK A01 T02780150  RH  046%=      5-min Rain = 0
KQU1 210414Z 20009KT 28/15 A3007 RMK A01 T02780150  RH  045%=      5-min Rain = 0
KQU1 210415Z 20010KT 28/15 A3007 RMK A01 T02790150  RH  045%=      5-min Rain = 0
KQU1 210416Z 19009KT 28/15 A3007 RMK A01 T02800149  RH  045%=      5-min Rain = 0
KQU1 210417Z 20008KT 28/15 A3007 RMK A01 T02810149  RH  045%=      5-min Rain = 0
KQU1 210418Z 19008KT 28/15 A3007 RMK A01 T02810149  RH  045%=      5-min Rain = 0
KQU1 210419Z 20008KT 28/15 A3007 RMK A01 T02810149  RH  045%=      5-min Rain = 0
KQU1 210420Z 20008KT 28/15 A3007 RMK A01 T02810150  RH  045%=      5-min Rain = 0
KQU1 210421Z 20008KT 28/15 A3006 RMK A01 T02800150  RH  045%=      5-min Rain = 0
KQU1 210422Z 20008KT 28/15 A3006 RMK A01 T02790150  RH  045%=      5-min Rain = 0
KQU1 210423Z 20009KT 28/15 A3006 RMK A01 T02790150  RH  045%=      5-min Rain = 0
KQU1 210424Z 20008KT 28/15 A3006 RMK A01 T02790151  RH  046%=      5-min Rain = 0
KQU1 210425Z 20008KT 28/15 A3007 RMK A01 T02780151  RH  046%=      5-min Rain = 0
KQU1 210426Z 20008KT 28/15 A3007 RMK A01 T02780151  RH  046%=      5-min Rain = 0
KQU1 210427Z 20008KT 28/15 A3007 RMK A01 T02780151  RH  046%=      5-min Rain = 0
KQU1 210428Z 20008KT 28/15 A3007 RMK A01 T02770152  RH  046%=      5-min Rain = 0
KQU1 210429Z 20008KT 28/15 A3007 RMK A01 T02770152  RH  046%=      5-min Rain = 0
KQU1 210430Z 20008KT 28/15 A3007 RMK A01 T02770152  RH  047%=      5-min Rain = 0
KQU1 210431Z 20008KT 28/15 A3007 RMK A01 T02760152  RH  047%=      5-min Rain = 0
KQU1 210432Z 21008KT 28/15 A3007 RMK A01 T02760153  RH  047%=      5-min Rain = 0
KQU1 210433Z 21008KT 28/15 A3007 RMK A01 T02750153  RH  047%=      5-min Rain = 0
KQU1 210434Z 21008KT 28/15 A3007 RMK A01 T02750153  RH  048%=      5-min Rain = 0
KQU1 210435Z 21008KT 27/15 A3006 RMK A01 T02740154  RH  048%=      5-min Rain = 0
KQU1 210436Z 21008KT 27/15 A3006 RMK A01 T02740154  RH  048%=      5-min Rain = 0
KQU1 210437Z 21008KT 28/15 A3006 RMK A01 T02750154  RH  048%=      5-min Rain = 0
KQU1 210438Z 21008KT 27/15 A3006 RMK A01 T02740154  RH  048%=      5-min Rain = 0
KQU1 210439Z 21009KT 27/15 A3006 RMK A01 T02740153  RH  048%=      5-min Rain = 0
KQU1 210440Z 21008KT 27/15 A3007 RMK A01 T02740153  RH  047%=      5-min Rain = 0
KQU1 210441Z 21008KT 27/15 A3007 RMK A01 T02740153  RH  047%=      5-min Rain = 0
KQU1 210442Z 21008KT 28/15 A3007 RMK A01 T02750153  RH  047%=      5-min Rain = 0
KQU1 210443Z 21008KT 28/15 A3007 RMK A01 T02750153  RH  047%=      5-min Rain = 0
KQU1 210444Z 20008KT 28/15 A3007 RMK A01 T02750152  RH  047%=      5-min Rain = 0
KQU1 210445Z 21008KT 28/15 A3007 RMK A01 T02760152  RH  047%=      5-min Rain = 0
KQU1 210446Z 21008KT 28/15 A3007 RMK A01 T02760152  RH  047%=      5-min Rain = 0
KQU1 210447Z 21008KT 28/15 A3007 RMK A01 T02760152  RH  047%=      5-min Rain = 0
KQU1 210448Z 20008KT 28/15 A3007 RMK A01 T02760152  RH  047%=      5-min Rain = 0
KQU1 210449Z 20008KT 28/15 A3007 RMK A01 T02760152  RH  047%=      5-min Rain = 0
KQU1 210450Z 20008KT 28/15 A3007 RMK A01 T02760151  RH  047%=      5-min Rain = 0
KQU1 210451Z 20008KT 28/15 A3007 RMK A01 T02760151  RH  046%=      5-min Rain = 0
KQU1 210452Z 20008KT 28/15 A3006 RMK A01 T02760151  RH  046%=      5-min Rain = 0
KQU1 210453Z 20009KT 28/15 A3006 RMK A01 T02770151  RH  046%=      5-min Rain = 0
KQU1 210454Z 20009KT 28/15 A3006 RMK A01 T02770150  RH  046%=      5-min Rain = 0
KQU1 210455Z 20008KT 28/15 A3006 RMK A01 T02770151  RH  046%=      5-min Rain = 0
KQU1 210456Z 20008KT 28/15 A3006 RMK A01 T02760151  RH  046%=      5-min Rain = 0
KQU1 210457Z 20008KT 28/15 A3006 RMK A01 T02760150  RH  046%=      5-min Rain = 0
KQU1 210458Z 20009KT 28/15 A3006 RMK A01 T02760150  RH  046%=      5-min Rain = 0
KQU1 210459Z 20009KT 28/15 A3006 RMK A01 T02760150  RH  046%=      5-min Rain = 0

Page generated in 0.1466 seconds.